<?xml version="1.0" encoding="UTF-8" standalone="no" ?>
<gpx xmlns="http://www.topografix.com/GPX/1/1" xmlns:xsi="http://www.w3.org/2001/XMLSchema-instance" xsi:schemaLocation="http://www.topografix.com/GPX/1/1 http://www.topografix.com/GPX/1/1/gpx.xsd" version="1.1" creator="VisuGPX - https://www.visugpx.com">
  <metadata>
    <name>3976 Les coteaux du plateau de Lachaud-MNT</name>
    <desc><![CDATA[Balirando]]></desc>
  </metadata>
  <trk>
    <name><![CDATA[3976 Les coteaux du plateau de Lachaud-MNT]]></name>
    <trkseg>
      <trkpt lat="45.85003" lon="3.08472">
        <ele>494.836365</ele>
        <time>2008-06-03T11:56:53Z</time>
      </trkpt>
      <trkpt lat="45.85009" lon="3.08476">
        <ele>494.723236</ele>
        <time>2008-06-03T11:56:57Z</time>
      </trkpt>
      <trkpt lat="45.85001" lon="3.08471">
        <ele>494.832611</ele>
        <time>2008-06-03T11:57:01Z</time>
      </trkpt>
      <trkpt lat="45.85004" lon="3.08477">
        <ele>494.544586</ele>
        <time>2008-06-03T11:57:05Z</time>
      </trkpt>
      <trkpt lat="45.85004" lon="3.0848">
        <ele>494.342163</ele>
        <time>2008-06-03T11:57:08Z</time>
      </trkpt>
      <trkpt lat="45.85005" lon="3.08489">
        <ele>493.793213</ele>
        <time>2008-06-03T11:57:13Z</time>
      </trkpt>
      <trkpt lat="45.85006" lon="3.08495">
        <ele>493.500061</ele>
        <time>2008-06-03T11:57:16Z</time>
      </trkpt>
      <trkpt lat="45.85006" lon="3.08496">
        <ele>493.412262</ele>
        <time>2008-06-03T11:57:17Z</time>
      </trkpt>
      <trkpt lat="45.85007" lon="3.08503">
        <ele>493.03421</ele>
        <time>2008-06-03T11:57:22Z</time>
      </trkpt>
      <trkpt lat="45.85007" lon="3.08513">
        <ele>492.395203</ele>
        <time>2008-06-03T11:57:29Z</time>
      </trkpt>
      <trkpt lat="45.85007" lon="3.08514">
        <ele>492.290375</ele>
        <time>2008-06-03T11:57:30Z</time>
      </trkpt>
      <trkpt lat="45.85006" lon="3.08529">
        <ele>491.395599</ele>
        <time>2008-06-03T11:57:39Z</time>
      </trkpt>
      <trkpt lat="45.85007" lon="3.08537">
        <ele>490.898529</ele>
        <time>2008-06-03T11:57:45Z</time>
      </trkpt>
      <trkpt lat="45.85005" lon="3.08568">
        <ele>488.927826</ele>
        <time>2008-06-03T11:58:05Z</time>
      </trkpt>
      <trkpt lat="45.85003" lon="3.08572">
        <ele>488.606934</ele>
        <time>2008-06-03T11:58:08Z</time>
      </trkpt>
      <trkpt lat="45.84998" lon="3.08601">
        <ele>486.790161</ele>
        <time>2008-06-03T11:58:26Z</time>
      </trkpt>
      <trkpt lat="45.85012" lon="3.08614">
        <ele>486.1586</ele>
        <time>2008-06-03T11:58:40Z</time>
      </trkpt>
      <trkpt lat="45.85019" lon="3.08613">
        <ele>486.256836</ele>
        <time>2008-06-03T11:58:47Z</time>
      </trkpt>
      <trkpt lat="45.8503" lon="3.08615">
        <ele>486.107758</ele>
        <time>2008-06-03T11:58:58Z</time>
      </trkpt>
      <trkpt lat="45.85048" lon="3.086">
        <ele>487.095612</ele>
        <time>2008-06-03T11:59:15Z</time>
      </trkpt>
      <trkpt lat="45.85049" lon="3.08599">
        <ele>487.144684</ele>
        <time>2008-06-03T11:59:16Z</time>
      </trkpt>
      <trkpt lat="45.8505" lon="3.08598">
        <ele>487.18335</ele>
        <time>2008-06-03T11:59:17Z</time>
      </trkpt>
      <trkpt lat="45.85051" lon="3.08597">
        <ele>487.275665</ele>
        <time>2008-06-03T11:59:19Z</time>
      </trkpt>
      <trkpt lat="45.85069" lon="3.08596">
        <ele>486.949371</ele>
        <time>2008-06-03T11:59:33Z</time>
      </trkpt>
      <trkpt lat="45.85075" lon="3.08592">
        <ele>487.064514</ele>
        <time>2008-06-03T11:59:38Z</time>
      </trkpt>
      <trkpt lat="45.85077" lon="3.08592">
        <ele>487.042755</ele>
        <time>2008-06-03T11:59:40Z</time>
      </trkpt>
      <trkpt lat="45.85094" lon="3.08577">
        <ele>487.785583</ele>
        <time>2008-06-03T11:59:58Z</time>
      </trkpt>
      <trkpt lat="45.85109" lon="3.08561">
        <ele>488.638611</ele>
        <time>2008-06-03T12:00:14Z</time>
      </trkpt>
      <trkpt lat="45.8513" lon="3.0855">
        <ele>489.218414</ele>
        <time>2008-06-03T12:00:33Z</time>
      </trkpt>
      <trkpt lat="45.85165" lon="3.08534">
        <ele>490.805298</ele>
        <time>2008-06-03T12:00:59Z</time>
      </trkpt>
      <trkpt lat="45.85187" lon="3.0852">
        <ele>492.251099</ele>
        <time>2008-06-03T12:01:18Z</time>
      </trkpt>
      <trkpt lat="45.85212" lon="3.08504">
        <ele>494.323669</ele>
        <time>2008-06-03T12:01:40Z</time>
      </trkpt>
      <trkpt lat="45.85231" lon="3.0849">
        <ele>495.521545</ele>
        <time>2008-06-03T12:01:58Z</time>
      </trkpt>
      <trkpt lat="45.85251" lon="3.08475">
        <ele>496.795898</ele>
        <time>2008-06-03T12:02:15Z</time>
      </trkpt>
      <trkpt lat="45.85274" lon="3.08467">
        <ele>497.735138</ele>
        <time>2008-06-03T12:02:33Z</time>
      </trkpt>
      <trkpt lat="45.85279" lon="3.08465">
        <ele>497.910034</ele>
        <time>2008-06-03T12:02:37Z</time>
      </trkpt>
      <trkpt lat="45.8529" lon="3.0844">
        <ele>499.28241</ele>
        <time>2008-06-03T12:02:53Z</time>
      </trkpt>
      <trkpt lat="45.85288" lon="3.08396">
        <ele>501.154419</ele>
        <time>2008-06-03T12:03:16Z</time>
      </trkpt>
      <trkpt lat="45.85286" lon="3.08354">
        <ele>502.961792</ele>
        <time>2008-06-03T12:03:38Z</time>
      </trkpt>
      <trkpt lat="45.85279" lon="3.08319">
        <ele>504.15683</ele>
        <time>2008-06-03T12:03:57Z</time>
      </trkpt>
      <trkpt lat="45.85267" lon="3.08284">
        <ele>504.636505</ele>
        <time>2008-06-03T12:04:18Z</time>
      </trkpt>
      <trkpt lat="45.85256" lon="3.08243">
        <ele>505.704926</ele>
        <time>2008-06-03T12:04:41Z</time>
      </trkpt>
      <trkpt lat="45.85252" lon="3.08198">
        <ele>507.192932</ele>
        <time>2008-06-03T12:05:05Z</time>
      </trkpt>
      <trkpt lat="45.85251" lon="3.0818">
        <ele>508.2099</ele>
        <time>2008-06-03T12:05:21Z</time>
      </trkpt>
      <trkpt lat="45.85249" lon="3.08142">
        <ele>510.412628</ele>
        <time>2008-06-03T12:05:41Z</time>
      </trkpt>
      <trkpt lat="45.85242" lon="3.08116">
        <ele>512.801331</ele>
        <time>2008-06-03T12:05:57Z</time>
      </trkpt>
      <trkpt lat="45.85223" lon="3.08092">
        <ele>515.77533</ele>
        <time>2008-06-03T12:06:19Z</time>
      </trkpt>
      <trkpt lat="45.85219" lon="3.08082">
        <ele>516.898682</ele>
        <time>2008-06-03T12:06:27Z</time>
      </trkpt>
      <trkpt lat="45.85219" lon="3.08052">
        <ele>518.823181</ele>
        <time>2008-06-03T12:06:47Z</time>
      </trkpt>
      <trkpt lat="45.85219" lon="3.08039">
        <ele>519.45343</ele>
        <time>2008-06-03T12:06:55Z</time>
      </trkpt>
      <trkpt lat="45.85221" lon="3.08014">
        <ele>520.696472</ele>
        <time>2008-06-03T12:07:13Z</time>
      </trkpt>
      <trkpt lat="45.85222" lon="3.07989">
        <ele>521.896118</ele>
        <time>2008-06-03T12:07:29Z</time>
      </trkpt>
      <trkpt lat="45.85225" lon="3.07957">
        <ele>523.357788</ele>
        <time>2008-06-03T12:07:47Z</time>
      </trkpt>
      <trkpt lat="45.85231" lon="3.07926">
        <ele>524.552612</ele>
        <time>2008-06-03T12:08:08Z</time>
      </trkpt>
      <trkpt lat="45.85233" lon="3.07883">
        <ele>525.877563</ele>
        <time>2008-06-03T12:08:33Z</time>
      </trkpt>
      <trkpt lat="45.8523" lon="3.0784">
        <ele>527.111084</ele>
        <time>2008-06-03T12:08:57Z</time>
      </trkpt>
      <trkpt lat="45.85225" lon="3.07808">
        <ele>527.799438</ele>
        <time>2008-06-03T12:09:15Z</time>
      </trkpt>
      <trkpt lat="45.85226" lon="3.07803">
        <ele>527.900574</ele>
        <time>2008-06-03T12:09:17Z</time>
      </trkpt>
      <trkpt lat="45.85214" lon="3.07757">
        <ele>528.332825</ele>
        <time>2008-06-03T12:09:42Z</time>
      </trkpt>
      <trkpt lat="45.85192" lon="3.0773">
        <ele>527.940674</ele>
        <time>2008-06-03T12:10:04Z</time>
      </trkpt>
      <trkpt lat="45.8519" lon="3.07728">
        <ele>527.898193</ele>
        <time>2008-06-03T12:10:07Z</time>
      </trkpt>
      <trkpt lat="45.85185" lon="3.07713">
        <ele>527.795227</ele>
        <time>2008-06-03T12:10:22Z</time>
      </trkpt>
      <trkpt lat="45.85181" lon="3.07705">
        <ele>527.70166</ele>
        <time>2008-06-03T12:10:34Z</time>
      </trkpt>
      <trkpt lat="45.85175" lon="3.07686">
        <ele>527.564209</ele>
        <time>2008-06-03T12:10:51Z</time>
      </trkpt>
      <trkpt lat="45.85172" lon="3.07667">
        <ele>527.632385</ele>
        <time>2008-06-03T12:11:08Z</time>
      </trkpt>
      <trkpt lat="45.85174" lon="3.07664">
        <ele>527.686707</ele>
        <time>2008-06-03T12:11:21Z</time>
      </trkpt>
      <trkpt lat="45.85174" lon="3.07664">
        <ele>527.695557</ele>
        <time>2008-06-03T12:11:37Z</time>
      </trkpt>
      <trkpt lat="45.85171" lon="3.07662">
        <ele>527.665344</ele>
        <time>2008-06-03T12:11:51Z</time>
      </trkpt>
      <trkpt lat="45.85172" lon="3.07666">
        <ele>527.642029</ele>
        <time>2008-06-03T12:12:10Z</time>
      </trkpt>
      <trkpt lat="45.85174" lon="3.07683">
        <ele>527.5625</ele>
        <time>2008-06-03T12:12:23Z</time>
      </trkpt>
      <trkpt lat="45.85183" lon="3.07709">
        <ele>527.745422</ele>
        <time>2008-06-03T12:12:42Z</time>
      </trkpt>
      <trkpt lat="45.85188" lon="3.07716">
        <ele>527.863831</ele>
        <time>2008-06-03T12:12:55Z</time>
      </trkpt>
      <trkpt lat="45.8519" lon="3.07716">
        <ele>527.900146</ele>
        <time>2008-06-03T12:13:10Z</time>
      </trkpt>
      <trkpt lat="45.8519" lon="3.07714">
        <ele>527.909546</ele>
        <time>2008-06-03T12:13:15Z</time>
      </trkpt>
      <trkpt lat="45.85188" lon="3.07689">
        <ele>527.850525</ele>
        <time>2008-06-03T12:13:31Z</time>
      </trkpt>
      <trkpt lat="45.85188" lon="3.07684">
        <ele>527.849548</ele>
        <time>2008-06-03T12:13:34Z</time>
      </trkpt>
      <trkpt lat="45.8518" lon="3.07651">
        <ele>527.843933</ele>
        <time>2008-06-03T12:13:55Z</time>
      </trkpt>
      <trkpt lat="45.85171" lon="3.07622">
        <ele>527.988098</ele>
        <time>2008-06-03T12:14:13Z</time>
      </trkpt>
      <trkpt lat="45.85165" lon="3.07595">
        <ele>528.130798</ele>
        <time>2008-06-03T12:14:29Z</time>
      </trkpt>
      <trkpt lat="45.85162" lon="3.07577">
        <ele>528.174805</ele>
        <time>2008-06-03T12:14:42Z</time>
      </trkpt>
      <trkpt lat="45.85158" lon="3.07567">
        <ele>528.135559</ele>
        <time>2008-06-03T12:14:57Z</time>
      </trkpt>
      <trkpt lat="45.85154" lon="3.07565">
        <ele>528.072937</ele>
        <time>2008-06-03T12:15:09Z</time>
      </trkpt>
      <trkpt lat="45.85154" lon="3.07562">
        <ele>528.070862</ele>
        <time>2008-06-03T12:15:22Z</time>
      </trkpt>
      <trkpt lat="45.85154" lon="3.07562">
        <ele>528.077271</ele>
        <time>2008-06-03T12:15:40Z</time>
      </trkpt>
      <trkpt lat="45.85151" lon="3.07555">
        <ele>528.016235</ele>
        <time>2008-06-03T12:15:58Z</time>
      </trkpt>
      <trkpt lat="45.85151" lon="3.07547">
        <ele>528.014526</ele>
        <time>2008-06-03T12:16:04Z</time>
      </trkpt>
      <trkpt lat="45.85147" lon="3.07532">
        <ele>527.911011</ele>
        <time>2008-06-03T12:16:18Z</time>
      </trkpt>
      <trkpt lat="45.85148" lon="3.0753">
        <ele>527.935852</ele>
        <time>2008-06-03T12:16:30Z</time>
      </trkpt>
      <trkpt lat="45.85148" lon="3.07527">
        <ele>527.933411</ele>
        <time>2008-06-03T12:16:38Z</time>
      </trkpt>
      <trkpt lat="45.85146" lon="3.0752">
        <ele>527.895325</ele>
        <time>2008-06-03T12:16:42Z</time>
      </trkpt>
      <trkpt lat="45.85141" lon="3.07498">
        <ele>527.78302</ele>
        <time>2008-06-03T12:16:57Z</time>
      </trkpt>
      <trkpt lat="45.85139" lon="3.07483">
        <ele>527.882324</ele>
        <time>2008-06-03T12:17:10Z</time>
      </trkpt>
      <trkpt lat="45.85139" lon="3.07482">
        <ele>527.893738</ele>
        <time>2008-06-03T12:17:11Z</time>
      </trkpt>
      <trkpt lat="45.85138" lon="3.07476">
        <ele>527.9599</ele>
        <time>2008-06-03T12:17:15Z</time>
      </trkpt>
      <trkpt lat="45.85137" lon="3.07466">
        <ele>528.091003</ele>
        <time>2008-06-03T12:17:22Z</time>
      </trkpt>
      <trkpt lat="45.85135" lon="3.07461">
        <ele>528.129944</ele>
        <time>2008-06-03T12:17:32Z</time>
      </trkpt>
      <trkpt lat="45.85135" lon="3.07458">
        <ele>528.158081</ele>
        <time>2008-06-03T12:17:34Z</time>
      </trkpt>
      <trkpt lat="45.85128" lon="3.07437">
        <ele>528.338745</ele>
        <time>2008-06-03T12:17:52Z</time>
      </trkpt>
      <trkpt lat="45.85127" lon="3.07433">
        <ele>528.363708</ele>
        <time>2008-06-03T12:17:55Z</time>
      </trkpt>
      <trkpt lat="45.85117" lon="3.0742">
        <ele>528.245178</ele>
        <time>2008-06-03T12:18:13Z</time>
      </trkpt>
      <trkpt lat="45.85114" lon="3.0742">
        <ele>528.170105</ele>
        <time>2008-06-03T12:18:23Z</time>
      </trkpt>
      <trkpt lat="45.85113" lon="3.07418">
        <ele>528.149231</ele>
        <time>2008-06-03T12:18:43Z</time>
      </trkpt>
      <trkpt lat="45.85113" lon="3.07417">
        <ele>528.152039</ele>
        <time>2008-06-03T12:18:58Z</time>
      </trkpt>
      <trkpt lat="45.85111" lon="3.07416">
        <ele>528.10498</ele>
        <time>2008-06-03T12:19:13Z</time>
      </trkpt>
      <trkpt lat="45.85112" lon="3.07416">
        <ele>528.112122</ele>
        <time>2008-06-03T12:19:31Z</time>
      </trkpt>
      <trkpt lat="45.85106" lon="3.07412">
        <ele>527.995911</ele>
        <time>2008-06-03T12:19:42Z</time>
      </trkpt>
      <trkpt lat="45.85098" lon="3.07401">
        <ele>527.708618</ele>
        <time>2008-06-03T12:19:55Z</time>
      </trkpt>
      <trkpt lat="45.8509" lon="3.07391">
        <ele>527.462524</ele>
        <time>2008-06-03T12:20:08Z</time>
      </trkpt>
      <trkpt lat="45.85089" lon="3.07387">
        <ele>527.451599</ele>
        <time>2008-06-03T12:20:11Z</time>
      </trkpt>
      <trkpt lat="45.85083" lon="3.07379">
        <ele>527.329407</ele>
        <time>2008-06-03T12:20:26Z</time>
      </trkpt>
      <trkpt lat="45.85077" lon="3.07372">
        <ele>527.235657</ele>
        <time>2008-06-03T12:20:39Z</time>
      </trkpt>
      <trkpt lat="45.85074" lon="3.07371">
        <ele>527.177673</ele>
        <time>2008-06-03T12:20:50Z</time>
      </trkpt>
      <trkpt lat="45.85072" lon="3.07368">
        <ele>527.161438</ele>
        <time>2008-06-03T12:21:02Z</time>
      </trkpt>
      <trkpt lat="45.85069" lon="3.07365">
        <ele>527.13269</ele>
        <time>2008-06-03T12:21:09Z</time>
      </trkpt>
      <trkpt lat="45.85059" lon="3.07352">
        <ele>526.871277</ele>
        <time>2008-06-03T12:21:25Z</time>
      </trkpt>
      <trkpt lat="45.85046" lon="3.07334">
        <ele>526.458008</ele>
        <time>2008-06-03T12:21:43Z</time>
      </trkpt>
      <trkpt lat="45.85036" lon="3.07316">
        <ele>526.242737</ele>
        <time>2008-06-03T12:21:58Z</time>
      </trkpt>
      <trkpt lat="45.85035" lon="3.07313">
        <ele>526.237305</ele>
        <time>2008-06-03T12:22:00Z</time>
      </trkpt>
      <trkpt lat="45.85028" lon="3.07303">
        <ele>526.169983</ele>
        <time>2008-06-03T12:22:09Z</time>
      </trkpt>
      <trkpt lat="45.8502" lon="3.07282">
        <ele>525.829712</ele>
        <time>2008-06-03T12:22:24Z</time>
      </trkpt>
      <trkpt lat="45.85018" lon="3.07277">
        <ele>525.691223</ele>
        <time>2008-06-03T12:22:38Z</time>
      </trkpt>
      <trkpt lat="45.85017" lon="3.07258">
        <ele>525.395752</ele>
        <time>2008-06-03T12:22:50Z</time>
      </trkpt>
      <trkpt lat="45.85017" lon="3.07243">
        <ele>525.16394</ele>
        <time>2008-06-03T12:22:59Z</time>
      </trkpt>
      <trkpt lat="45.85017" lon="3.0724">
        <ele>525.109314</ele>
        <time>2008-06-03T12:23:01Z</time>
      </trkpt>
      <trkpt lat="45.85018" lon="3.07226">
        <ele>525.002686</ele>
        <time>2008-06-03T12:23:12Z</time>
      </trkpt>
      <trkpt lat="45.85019" lon="3.07201">
        <ele>525.031616</ele>
        <time>2008-06-03T12:23:27Z</time>
      </trkpt>
      <trkpt lat="45.8502" lon="3.07198">
        <ele>525.042175</ele>
        <time>2008-06-03T12:23:29Z</time>
      </trkpt>
      <trkpt lat="45.85021" lon="3.07174">
        <ele>525.066528</ele>
        <time>2008-06-03T12:23:42Z</time>
      </trkpt>
      <trkpt lat="45.85021" lon="3.07168">
        <ele>525.065735</ele>
        <time>2008-06-03T12:23:45Z</time>
      </trkpt>
      <trkpt lat="45.85022" lon="3.07143">
        <ele>524.697693</ele>
        <time>2008-06-03T12:24:01Z</time>
      </trkpt>
      <trkpt lat="45.85023" lon="3.07135">
        <ele>524.579346</ele>
        <time>2008-06-03T12:24:10Z</time>
      </trkpt>
      <trkpt lat="45.85025" lon="3.07105">
        <ele>524.161804</ele>
        <time>2008-06-03T12:24:27Z</time>
      </trkpt>
      <trkpt lat="45.85028" lon="3.07064">
        <ele>524.080933</ele>
        <time>2008-06-03T12:24:47Z</time>
      </trkpt>
      <trkpt lat="45.85033" lon="3.07022">
        <ele>524</ele>
        <time>2008-06-03T12:25:08Z</time>
      </trkpt>
      <trkpt lat="45.85036" lon="3.06981">
        <ele>524</ele>
        <time>2008-06-03T12:25:29Z</time>
      </trkpt>
      <trkpt lat="45.85032" lon="3.06937">
        <ele>523.843567</ele>
        <time>2008-06-03T12:25:52Z</time>
      </trkpt>
      <trkpt lat="45.85029" lon="3.06905">
        <ele>523.728394</ele>
        <time>2008-06-03T12:26:10Z</time>
      </trkpt>
      <trkpt lat="45.85026" lon="3.06869">
        <ele>523.308899</ele>
        <time>2008-06-03T12:26:30Z</time>
      </trkpt>
      <trkpt lat="45.85022" lon="3.06834">
        <ele>522.809204</ele>
        <time>2008-06-03T12:26:50Z</time>
      </trkpt>
      <trkpt lat="45.85017" lon="3.06803">
        <ele>522.282715</ele>
        <time>2008-06-03T12:27:07Z</time>
      </trkpt>
      <trkpt lat="45.8501" lon="3.06766">
        <ele>520.965576</ele>
        <time>2008-06-03T12:27:30Z</time>
      </trkpt>
      <trkpt lat="45.85004" lon="3.0673">
        <ele>518.877869</ele>
        <time>2008-06-03T12:27:51Z</time>
      </trkpt>
      <trkpt lat="45.85001" lon="3.06714">
        <ele>518.03125</ele>
        <time>2008-06-03T12:28:01Z</time>
      </trkpt>
      <trkpt lat="45.85" lon="3.06697">
        <ele>517.564392</ele>
        <time>2008-06-03T12:28:09Z</time>
      </trkpt>
      <trkpt lat="45.84996" lon="3.06673">
        <ele>516.884338</ele>
        <time>2008-06-03T12:28:24Z</time>
      </trkpt>
      <trkpt lat="45.84993" lon="3.06643">
        <ele>516.31781</ele>
        <time>2008-06-03T12:28:39Z</time>
      </trkpt>
      <trkpt lat="45.84991" lon="3.06616">
        <ele>516.136719</ele>
        <time>2008-06-03T12:28:54Z</time>
      </trkpt>
      <trkpt lat="45.8499" lon="3.06609">
        <ele>516.091858</ele>
        <time>2008-06-03T12:28:58Z</time>
      </trkpt>
      <trkpt lat="45.84988" lon="3.06581">
        <ele>516</ele>
        <time>2008-06-03T12:29:13Z</time>
      </trkpt>
      <trkpt lat="45.84987" lon="3.06544">
        <ele>516</ele>
        <time>2008-06-03T12:29:32Z</time>
      </trkpt>
      <trkpt lat="45.84988" lon="3.06528">
        <ele>516</ele>
        <time>2008-06-03T12:29:42Z</time>
      </trkpt>
      <trkpt lat="45.84989" lon="3.06502">
        <ele>515.648132</ele>
        <time>2008-06-03T12:29:59Z</time>
      </trkpt>
      <trkpt lat="45.84988" lon="3.06496">
        <ele>515.560486</ele>
        <time>2008-06-03T12:30:02Z</time>
      </trkpt>
      <trkpt lat="45.84989" lon="3.06459">
        <ele>514.992432</ele>
        <time>2008-06-03T12:30:23Z</time>
      </trkpt>
      <trkpt lat="45.8499" lon="3.06445">
        <ele>514.764282</ele>
        <time>2008-06-03T12:30:31Z</time>
      </trkpt>
      <trkpt lat="45.84989" lon="3.06432">
        <ele>514.565735</ele>
        <time>2008-06-03T12:30:38Z</time>
      </trkpt>
      <trkpt lat="45.84992" lon="3.06411">
        <ele>514.246216</ele>
        <time>2008-06-03T12:30:52Z</time>
      </trkpt>
      <trkpt lat="45.84992" lon="3.06408">
        <ele>514.196289</ele>
        <time>2008-06-03T12:30:54Z</time>
      </trkpt>
      <trkpt lat="45.84993" lon="3.06378">
        <ele>513.732483</ele>
        <time>2008-06-03T12:31:13Z</time>
      </trkpt>
      <trkpt lat="45.84995" lon="3.06353">
        <ele>513.332642</ele>
        <time>2008-06-03T12:31:27Z</time>
      </trkpt>
      <trkpt lat="45.84996" lon="3.06344">
        <ele>513.197327</ele>
        <time>2008-06-03T12:31:32Z</time>
      </trkpt>
      <trkpt lat="45.84997" lon="3.06317">
        <ele>512.911621</ele>
        <time>2008-06-03T12:31:45Z</time>
      </trkpt>
      <trkpt lat="45.85" lon="3.06312">
        <ele>512.856323</ele>
        <time>2008-06-03T12:31:49Z</time>
      </trkpt>
      <trkpt lat="45.85003" lon="3.06303">
        <ele>512.766113</ele>
        <time>2008-06-03T12:31:55Z</time>
      </trkpt>
      <trkpt lat="45.8501" lon="3.06277">
        <ele>512.416016</ele>
        <time>2008-06-03T12:32:12Z</time>
      </trkpt>
      <trkpt lat="45.85012" lon="3.06272">
        <ele>512.321289</ele>
        <time>2008-06-03T12:32:16Z</time>
      </trkpt>
      <trkpt lat="45.85014" lon="3.0627">
        <ele>512.256348</ele>
        <time>2008-06-03T12:32:34Z</time>
      </trkpt>
      <trkpt lat="45.8503" lon="3.06243">
        <ele>511.543701</ele>
        <time>2008-06-03T12:32:54Z</time>
      </trkpt>
      <trkpt lat="45.85045" lon="3.06221">
        <ele>511.147308</ele>
        <time>2008-06-03T12:33:11Z</time>
      </trkpt>
      <trkpt lat="45.85056" lon="3.06207">
        <ele>511.017761</ele>
        <time>2008-06-03T12:33:28Z</time>
      </trkpt>
      <trkpt lat="45.85054" lon="3.06211">
        <ele>511.043976</ele>
        <time>2008-06-03T12:33:44Z</time>
      </trkpt>
      <trkpt lat="45.8505" lon="3.06216">
        <ele>511.08316</ele>
        <time>2008-06-03T12:33:57Z</time>
      </trkpt>
      <trkpt lat="45.85055" lon="3.0622">
        <ele>511.085022</ele>
        <time>2008-06-03T12:34:09Z</time>
      </trkpt>
      <trkpt lat="45.85059" lon="3.06229">
        <ele>511.094513</ele>
        <time>2008-06-03T12:34:23Z</time>
      </trkpt>
      <trkpt lat="45.8506" lon="3.06229">
        <ele>511.078186</ele>
        <time>2008-06-03T12:34:41Z</time>
      </trkpt>
      <trkpt lat="45.85061" lon="3.0623">
        <ele>511.072083</ele>
        <time>2008-06-03T12:34:53Z</time>
      </trkpt>
      <trkpt lat="45.85061" lon="3.0623">
        <ele>511.071228</ele>
        <time>2008-06-03T12:34:54Z</time>
      </trkpt>
      <trkpt lat="45.8507" lon="3.06231">
        <ele>510.960205</ele>
        <time>2008-06-03T12:35:00Z</time>
      </trkpt>
      <trkpt lat="45.85087" lon="3.06231">
        <ele>510.203369</ele>
        <time>2008-06-03T12:35:16Z</time>
      </trkpt>
      <trkpt lat="45.85076" lon="3.06229">
        <ele>510.684601</ele>
        <time>2008-06-03T12:35:28Z</time>
      </trkpt>
      <trkpt lat="45.85074" lon="3.06228">
        <ele>510.787109</ele>
        <time>2008-06-03T12:35:30Z</time>
      </trkpt>
      <trkpt lat="45.8507" lon="3.06222">
        <ele>510.986176</ele>
        <time>2008-06-03T12:35:39Z</time>
      </trkpt>
      <trkpt lat="45.85064" lon="3.06227">
        <ele>511.046997</ele>
        <time>2008-06-03T12:35:44Z</time>
      </trkpt>
      <trkpt lat="45.85059" lon="3.06226">
        <ele>511.082001</ele>
        <time>2008-06-03T12:35:55Z</time>
      </trkpt>
      <trkpt lat="45.85053" lon="3.06219">
        <ele>511.087677</ele>
        <time>2008-06-03T12:36:07Z</time>
      </trkpt>
      <trkpt lat="45.85051" lon="3.06215">
        <ele>511.074768</ele>
        <time>2008-06-03T12:36:17Z</time>
      </trkpt>
      <trkpt lat="45.8505" lon="3.06215">
        <ele>511.082336</ele>
        <time>2008-06-03T12:36:20Z</time>
      </trkpt>
      <trkpt lat="45.85031" lon="3.06243">
        <ele>511.534607</ele>
        <time>2008-06-03T12:36:40Z</time>
      </trkpt>
      <trkpt lat="45.85014" lon="3.06267">
        <ele>512.220215</ele>
        <time>2008-06-03T12:36:57Z</time>
      </trkpt>
      <trkpt lat="45.8501" lon="3.06267">
        <ele>512.309265</ele>
        <time>2008-06-03T12:37:04Z</time>
      </trkpt>
      <trkpt lat="45.85011" lon="3.0626">
        <ele>512.199219</ele>
        <time>2008-06-03T12:37:08Z</time>
      </trkpt>
      <trkpt lat="45.85012" lon="3.06235">
        <ele>511.773529</ele>
        <time>2008-06-03T12:37:24Z</time>
      </trkpt>
      <trkpt lat="45.85012" lon="3.06234">
        <ele>511.75058</ele>
        <time>2008-06-03T12:37:25Z</time>
      </trkpt>
      <trkpt lat="45.85013" lon="3.06227">
        <ele>511.62561</ele>
        <time>2008-06-03T12:37:29Z</time>
      </trkpt>
      <trkpt lat="45.85017" lon="3.06201">
        <ele>511.148132</ele>
        <time>2008-06-03T12:37:45Z</time>
      </trkpt>
      <trkpt lat="45.85016" lon="3.06188">
        <ele>510.916962</ele>
        <time>2008-06-03T12:37:52Z</time>
      </trkpt>
      <trkpt lat="45.8502" lon="3.06155">
        <ele>510.276154</ele>
        <time>2008-06-03T12:38:10Z</time>
      </trkpt>
      <trkpt lat="45.85022" lon="3.06151">
        <ele>510.21225</ele>
        <time>2008-06-03T12:38:25Z</time>
      </trkpt>
      <trkpt lat="45.85026" lon="3.06155">
        <ele>510.264587</ele>
        <time>2008-06-03T12:38:29Z</time>
      </trkpt>
      <trkpt lat="45.85059" lon="3.06179">
        <ele>510.630005</ele>
        <time>2008-06-03T12:38:44Z</time>
      </trkpt>
      <trkpt lat="45.8507" lon="3.06182">
        <ele>510.640564</ele>
        <time>2008-06-03T12:38:52Z</time>
      </trkpt>
      <trkpt lat="45.85072" lon="3.06182">
        <ele>510.573303</ele>
        <time>2008-06-03T12:39:04Z</time>
      </trkpt>
      <trkpt lat="45.85074" lon="3.06184">
        <ele>510.533752</ele>
        <time>2008-06-03T12:39:18Z</time>
      </trkpt>
      <trkpt lat="45.85072" lon="3.06179">
        <ele>510.528564</ele>
        <time>2008-06-03T12:39:40Z</time>
      </trkpt>
      <trkpt lat="45.85073" lon="3.06179">
        <ele>510.501465</ele>
        <time>2008-06-03T12:39:47Z</time>
      </trkpt>
      <trkpt lat="45.85085" lon="3.06174">
        <ele>510.010284</ele>
        <time>2008-06-03T12:40:01Z</time>
      </trkpt>
      <trkpt lat="45.85097" lon="3.06168">
        <ele>509.573059</ele>
        <time>2008-06-03T12:40:15Z</time>
      </trkpt>
      <trkpt lat="45.85106" lon="3.06158">
        <ele>509.248505</ele>
        <time>2008-06-03T12:40:30Z</time>
      </trkpt>
      <trkpt lat="45.85116" lon="3.06145">
        <ele>508.958282</ele>
        <time>2008-06-03T12:40:46Z</time>
      </trkpt>
      <trkpt lat="45.85119" lon="3.06141">
        <ele>508.806061</ele>
        <time>2008-06-03T12:40:50Z</time>
      </trkpt>
      <trkpt lat="45.85129" lon="3.06125">
        <ele>507.99881</ele>
        <time>2008-06-03T12:41:05Z</time>
      </trkpt>
      <trkpt lat="45.85143" lon="3.06114">
        <ele>507.189941</ele>
        <time>2008-06-03T12:41:20Z</time>
      </trkpt>
      <trkpt lat="45.85154" lon="3.06101">
        <ele>506.558105</ele>
        <time>2008-06-03T12:41:34Z</time>
      </trkpt>
      <trkpt lat="45.85156" lon="3.06099">
        <ele>506.480255</ele>
        <time>2008-06-03T12:41:36Z</time>
      </trkpt>
      <trkpt lat="45.85172" lon="3.06085">
        <ele>505.867004</ele>
        <time>2008-06-03T12:41:51Z</time>
      </trkpt>
      <trkpt lat="45.85184" lon="3.06068">
        <ele>505.34259</ele>
        <time>2008-06-03T12:42:04Z</time>
      </trkpt>
      <trkpt lat="45.85191" lon="3.06055">
        <ele>504.976715</ele>
        <time>2008-06-03T12:42:13Z</time>
      </trkpt>
      <trkpt lat="45.85205" lon="3.06033">
        <ele>504.348511</ele>
        <time>2008-06-03T12:42:30Z</time>
      </trkpt>
      <trkpt lat="45.85205" lon="3.06032">
        <ele>504.312927</ele>
        <time>2008-06-03T12:42:31Z</time>
      </trkpt>
      <trkpt lat="45.85219" lon="3.0601">
        <ele>504.315735</ele>
        <time>2008-06-03T12:42:48Z</time>
      </trkpt>
      <trkpt lat="45.85223" lon="3.06">
        <ele>504.454773</ele>
        <time>2008-06-03T12:42:53Z</time>
      </trkpt>
      <trkpt lat="45.85221" lon="3.05984">
        <ele>504.485901</ele>
        <time>2008-06-03T12:43:07Z</time>
      </trkpt>
      <trkpt lat="45.85221" lon="3.05978">
        <ele>504.514099</ele>
        <time>2008-06-03T12:43:31Z</time>
      </trkpt>
      <trkpt lat="45.85224" lon="3.05966">
        <ele>504.688782</ele>
        <time>2008-06-03T12:43:47Z</time>
      </trkpt>
      <trkpt lat="45.85225" lon="3.05964">
        <ele>504.748169</ele>
        <time>2008-06-03T12:43:49Z</time>
      </trkpt>
      <trkpt lat="45.85238" lon="3.05925">
        <ele>505.668243</ele>
        <time>2008-06-03T12:44:16Z</time>
      </trkpt>
      <trkpt lat="45.8525" lon="3.05882">
        <ele>506.922302</ele>
        <time>2008-06-03T12:44:41Z</time>
      </trkpt>
      <trkpt lat="45.85261" lon="3.05842">
        <ele>508.501953</ele>
        <time>2008-06-03T12:45:05Z</time>
      </trkpt>
      <trkpt lat="45.85274" lon="3.05804">
        <ele>509.338074</ele>
        <time>2008-06-03T12:45:27Z</time>
      </trkpt>
      <trkpt lat="45.85289" lon="3.0577">
        <ele>508.09613</ele>
        <time>2008-06-03T12:45:47Z</time>
      </trkpt>
      <trkpt lat="45.85308" lon="3.05757">
        <ele>507.354401</ele>
        <time>2008-06-03T12:46:05Z</time>
      </trkpt>
      <trkpt lat="45.85317" lon="3.05753">
        <ele>506.973663</ele>
        <time>2008-06-03T12:46:15Z</time>
      </trkpt>
      <trkpt lat="45.85332" lon="3.0574">
        <ele>504.837616</ele>
        <time>2008-06-03T12:46:33Z</time>
      </trkpt>
      <trkpt lat="45.85347" lon="3.05724">
        <ele>501.803162</ele>
        <time>2008-06-03T12:46:48Z</time>
      </trkpt>
      <trkpt lat="45.85355" lon="3.05717">
        <ele>500.805115</ele>
        <time>2008-06-03T12:46:56Z</time>
      </trkpt>
      <trkpt lat="45.85373" lon="3.05698">
        <ele>497.62674</ele>
        <time>2008-06-03T12:47:16Z</time>
      </trkpt>
      <trkpt lat="45.85391" lon="3.05678">
        <ele>495.161133</ele>
        <time>2008-06-03T12:47:37Z</time>
      </trkpt>
      <trkpt lat="45.85404" lon="3.05658">
        <ele>493.363403</ele>
        <time>2008-06-03T12:47:53Z</time>
      </trkpt>
      <trkpt lat="45.85418" lon="3.05629">
        <ele>489.82251</ele>
        <time>2008-06-03T12:48:14Z</time>
      </trkpt>
      <trkpt lat="45.85431" lon="3.05597">
        <ele>487.858307</ele>
        <time>2008-06-03T12:48:34Z</time>
      </trkpt>
      <trkpt lat="45.85432" lon="3.05594">
        <ele>487.618835</ele>
        <time>2008-06-03T12:48:37Z</time>
      </trkpt>
      <trkpt lat="45.85442" lon="3.05568">
        <ele>487.470612</ele>
        <time>2008-06-03T12:48:57Z</time>
      </trkpt>
      <trkpt lat="45.85451" lon="3.05546">
        <ele>487.65686</ele>
        <time>2008-06-03T12:49:15Z</time>
      </trkpt>
      <trkpt lat="45.85458" lon="3.05522">
        <ele>486.971191</ele>
        <time>2008-06-03T12:49:32Z</time>
      </trkpt>
      <trkpt lat="45.85459" lon="3.0552">
        <ele>486.963898</ele>
        <time>2008-06-03T12:49:33Z</time>
      </trkpt>
      <trkpt lat="45.85465" lon="3.05505">
        <ele>486.773468</ele>
        <time>2008-06-03T12:49:44Z</time>
      </trkpt>
      <trkpt lat="45.85469" lon="3.05473">
        <ele>484.351135</ele>
        <time>2008-06-03T12:49:59Z</time>
      </trkpt>
      <trkpt lat="45.85481" lon="3.0545">
        <ele>483.8797</ele>
        <time>2008-06-03T12:50:17Z</time>
      </trkpt>
      <trkpt lat="45.85489" lon="3.05423">
        <ele>482.868774</ele>
        <time>2008-06-03T12:50:34Z</time>
      </trkpt>
      <trkpt lat="45.85497" lon="3.05401">
        <ele>481.424194</ele>
        <time>2008-06-03T12:50:51Z</time>
      </trkpt>
      <trkpt lat="45.85503" lon="3.05377">
        <ele>479.058685</ele>
        <time>2008-06-03T12:51:05Z</time>
      </trkpt>
      <trkpt lat="45.85513" lon="3.05346">
        <ele>476.886322</ele>
        <time>2008-06-03T12:51:22Z</time>
      </trkpt>
      <trkpt lat="45.85519" lon="3.0533">
        <ele>475.614136</ele>
        <time>2008-06-03T12:51:29Z</time>
      </trkpt>
      <trkpt lat="45.85521" lon="3.05313">
        <ele>473.530365</ele>
        <time>2008-06-03T12:51:41Z</time>
      </trkpt>
      <trkpt lat="45.85524" lon="3.05295">
        <ele>472.189728</ele>
        <time>2008-06-03T12:51:56Z</time>
      </trkpt>
      <trkpt lat="45.85522" lon="3.05273">
        <ele>470.78598</ele>
        <time>2008-06-03T12:52:11Z</time>
      </trkpt>
      <trkpt lat="45.85524" lon="3.05251">
        <ele>469.455322</ele>
        <time>2008-06-03T12:52:24Z</time>
      </trkpt>
      <trkpt lat="45.85525" lon="3.05236">
        <ele>469.001465</ele>
        <time>2008-06-03T12:52:35Z</time>
      </trkpt>
      <trkpt lat="45.85518" lon="3.05208">
        <ele>469.087738</ele>
        <time>2008-06-03T12:52:56Z</time>
      </trkpt>
      <trkpt lat="45.85514" lon="3.05197">
        <ele>469.181885</ele>
        <time>2008-06-03T12:53:18Z</time>
      </trkpt>
      <trkpt lat="45.85516" lon="3.05197">
        <ele>469.162445</ele>
        <time>2008-06-03T12:53:32Z</time>
      </trkpt>
      <trkpt lat="45.85521" lon="3.05183">
        <ele>469.092957</ele>
        <time>2008-06-03T12:53:47Z</time>
      </trkpt>
      <trkpt lat="45.85526" lon="3.05166">
        <ele>468.994629</ele>
        <time>2008-06-03T12:54:02Z</time>
      </trkpt>
      <trkpt lat="45.85528" lon="3.05148">
        <ele>468.902618</ele>
        <time>2008-06-03T12:54:15Z</time>
      </trkpt>
      <trkpt lat="45.85533" lon="3.05116">
        <ele>468.71463</ele>
        <time>2008-06-03T12:54:31Z</time>
      </trkpt>
      <trkpt lat="45.85533" lon="3.05115">
        <ele>468.705109</ele>
        <time>2008-06-03T12:54:32Z</time>
      </trkpt>
      <trkpt lat="45.8554" lon="3.05096">
        <ele>468.87381</ele>
        <time>2008-06-03T12:54:46Z</time>
      </trkpt>
      <trkpt lat="45.85537" lon="3.05072">
        <ele>469.701172</ele>
        <time>2008-06-03T12:55:02Z</time>
      </trkpt>
      <trkpt lat="45.85536" lon="3.05049">
        <ele>470.397095</ele>
        <time>2008-06-03T12:55:16Z</time>
      </trkpt>
      <trkpt lat="45.85531" lon="3.05021">
        <ele>470.747742</ele>
        <time>2008-06-03T12:55:31Z</time>
      </trkpt>
      <trkpt lat="45.85532" lon="3.0502">
        <ele>470.668182</ele>
        <time>2008-06-03T12:55:34Z</time>
      </trkpt>
      <trkpt lat="45.85539" lon="3.05012">
        <ele>470.185883</ele>
        <time>2008-06-03T12:55:43Z</time>
      </trkpt>
      <trkpt lat="45.85541" lon="3.05011">
        <ele>470.062378</ele>
        <time>2008-06-03T12:55:45Z</time>
      </trkpt>
      <trkpt lat="45.85546" lon="3.05007">
        <ele>469.704407</ele>
        <time>2008-06-03T12:55:51Z</time>
      </trkpt>
      <trkpt lat="45.85564" lon="3.04997">
        <ele>468.555054</ele>
        <time>2008-06-03T12:56:07Z</time>
      </trkpt>
      <trkpt lat="45.85581" lon="3.04987">
        <ele>467.38269</ele>
        <time>2008-06-03T12:56:25Z</time>
      </trkpt>
      <trkpt lat="45.85601" lon="3.04975">
        <ele>465.789459</ele>
        <time>2008-06-03T12:56:46Z</time>
      </trkpt>
      <trkpt lat="45.85626" lon="3.04961">
        <ele>464.200195</ele>
        <time>2008-06-03T12:57:06Z</time>
      </trkpt>
      <trkpt lat="45.85645" lon="3.0495">
        <ele>463.200043</ele>
        <time>2008-06-03T12:57:23Z</time>
      </trkpt>
      <trkpt lat="45.85667" lon="3.04936">
        <ele>462.057739</ele>
        <time>2008-06-03T12:57:41Z</time>
      </trkpt>
      <trkpt lat="45.85681" lon="3.04923">
        <ele>461.585876</ele>
        <time>2008-06-03T12:57:56Z</time>
      </trkpt>
      <trkpt lat="45.85691" lon="3.04913">
        <ele>461.697449</ele>
        <time>2008-06-03T12:58:07Z</time>
      </trkpt>
      <trkpt lat="45.85701" lon="3.04901">
        <ele>461.872375</ele>
        <time>2008-06-03T12:58:20Z</time>
      </trkpt>
      <trkpt lat="45.85716" lon="3.04886">
        <ele>461.995239</ele>
        <time>2008-06-03T12:58:35Z</time>
      </trkpt>
      <trkpt lat="45.85735" lon="3.04865">
        <ele>462.231476</ele>
        <time>2008-06-03T12:58:53Z</time>
      </trkpt>
      <trkpt lat="45.8574" lon="3.04859">
        <ele>462.308929</ele>
        <time>2008-06-03T12:58:58Z</time>
      </trkpt>
      <trkpt lat="45.85769" lon="3.04834">
        <ele>462.452698</ele>
        <time>2008-06-03T12:59:24Z</time>
      </trkpt>
      <trkpt lat="45.85794" lon="3.04824">
        <ele>462.220581</ele>
        <time>2008-06-03T12:59:46Z</time>
      </trkpt>
      <trkpt lat="45.85815" lon="3.04818">
        <ele>461.598846</ele>
        <time>2008-06-03T13:00:03Z</time>
      </trkpt>
      <trkpt lat="45.85831" lon="3.0481">
        <ele>461.130157</ele>
        <time>2008-06-03T13:00:19Z</time>
      </trkpt>
      <trkpt lat="45.85859" lon="3.048">
        <ele>460.557007</ele>
        <time>2008-06-03T13:00:40Z</time>
      </trkpt>
      <trkpt lat="45.8588" lon="3.04793">
        <ele>460.426178</ele>
        <time>2008-06-03T13:00:57Z</time>
      </trkpt>
      <trkpt lat="45.85893" lon="3.04789">
        <ele>460.374786</ele>
        <time>2008-06-03T13:01:11Z</time>
      </trkpt>
      <trkpt lat="45.85907" lon="3.04783">
        <ele>460.154388</ele>
        <time>2008-06-03T13:01:25Z</time>
      </trkpt>
      <trkpt lat="45.85922" lon="3.04776">
        <ele>460.100372</ele>
        <time>2008-06-03T13:01:40Z</time>
      </trkpt>
      <trkpt lat="45.85943" lon="3.04766">
        <ele>460.441406</ele>
        <time>2008-06-03T13:01:54Z</time>
      </trkpt>
      <trkpt lat="45.85944" lon="3.0477">
        <ele>460.104065</ele>
        <time>2008-06-03T13:02:05Z</time>
      </trkpt>
      <trkpt lat="45.85945" lon="3.04768">
        <ele>460.268097</ele>
        <time>2008-06-03T13:02:11Z</time>
      </trkpt>
      <trkpt lat="45.85956" lon="3.04757">
        <ele>460.901215</ele>
        <time>2008-06-03T13:02:26Z</time>
      </trkpt>
      <trkpt lat="45.85958" lon="3.04754">
        <ele>461.061005</ele>
        <time>2008-06-03T13:02:35Z</time>
      </trkpt>
      <trkpt lat="45.85979" lon="3.04738">
        <ele>461.749695</ele>
        <time>2008-06-03T13:02:53Z</time>
      </trkpt>
      <trkpt lat="45.85986" lon="3.0473">
        <ele>461.744415</ele>
        <time>2008-06-03T13:03:01Z</time>
      </trkpt>
      <trkpt lat="45.85995" lon="3.04737">
        <ele>460.793335</ele>
        <time>2008-06-03T13:03:12Z</time>
      </trkpt>
      <trkpt lat="45.85999" lon="3.04753">
        <ele>459.893616</ele>
        <time>2008-06-03T13:03:27Z</time>
      </trkpt>
      <trkpt lat="45.86004" lon="3.0478">
        <ele>458.670624</ele>
        <time>2008-06-03T13:03:44Z</time>
      </trkpt>
      <trkpt lat="45.86009" lon="3.04788">
        <ele>458.333405</ele>
        <time>2008-06-03T13:03:50Z</time>
      </trkpt>
      <trkpt lat="45.86012" lon="3.04799">
        <ele>458.00589</ele>
        <time>2008-06-03T13:03:55Z</time>
      </trkpt>
      <trkpt lat="45.86014" lon="3.04803">
        <ele>457.889252</ele>
        <time>2008-06-03T13:03:57Z</time>
      </trkpt>
      <trkpt lat="45.86018" lon="3.04817">
        <ele>457.491028</ele>
        <time>2008-06-03T13:04:03Z</time>
      </trkpt>
      <trkpt lat="45.86027" lon="3.04838">
        <ele>456.859467</ele>
        <time>2008-06-03T13:04:17Z</time>
      </trkpt>
      <trkpt lat="45.86048" lon="3.04871">
        <ele>456.405518</ele>
        <time>2008-06-03T13:04:40Z</time>
      </trkpt>
      <trkpt lat="45.86067" lon="3.04897">
        <ele>456.001068</ele>
        <time>2008-06-03T13:04:59Z</time>
      </trkpt>
      <trkpt lat="45.86088" lon="3.04926">
        <ele>455.096985</ele>
        <time>2008-06-03T13:05:21Z</time>
      </trkpt>
      <trkpt lat="45.86106" lon="3.04955">
        <ele>454.264252</ele>
        <time>2008-06-03T13:05:42Z</time>
      </trkpt>
      <trkpt lat="45.86122" lon="3.0498">
        <ele>453.240662</ele>
        <time>2008-06-03T13:06:00Z</time>
      </trkpt>
      <trkpt lat="45.86136" lon="3.04998">
        <ele>452.426025</ele>
        <time>2008-06-03T13:06:14Z</time>
      </trkpt>
      <trkpt lat="45.86144" lon="3.05014">
        <ele>452.047485</ele>
        <time>2008-06-03T13:06:25Z</time>
      </trkpt>
      <trkpt lat="45.86149" lon="3.05025">
        <ele>451.766815</ele>
        <time>2008-06-03T13:06:31Z</time>
      </trkpt>
      <trkpt lat="45.86153" lon="3.05033">
        <ele>451.525848</ele>
        <time>2008-06-03T13:06:36Z</time>
      </trkpt>
      <trkpt lat="45.86157" lon="3.05042">
        <ele>451.258789</ele>
        <time>2008-06-03T13:06:41Z</time>
      </trkpt>
      <trkpt lat="45.86172" lon="3.05066">
        <ele>450.307098</ele>
        <time>2008-06-03T13:06:58Z</time>
      </trkpt>
      <trkpt lat="45.86179" lon="3.0507">
        <ele>450.006592</ele>
        <time>2008-06-03T13:07:11Z</time>
      </trkpt>
      <trkpt lat="45.86181" lon="3.05077">
        <ele>449.912598</ele>
        <time>2008-06-03T13:07:19Z</time>
      </trkpt>
      <trkpt lat="45.86193" lon="3.05094">
        <ele>449.357117</ele>
        <time>2008-06-03T13:07:33Z</time>
      </trkpt>
      <trkpt lat="45.86199" lon="3.05097">
        <ele>449.108643</ele>
        <time>2008-06-03T13:07:37Z</time>
      </trkpt>
      <trkpt lat="45.86216" lon="3.05105">
        <ele>448.857391</ele>
        <time>2008-06-03T13:07:52Z</time>
      </trkpt>
      <trkpt lat="45.86234" lon="3.0511">
        <ele>448.596741</ele>
        <time>2008-06-03T13:08:06Z</time>
      </trkpt>
      <trkpt lat="45.86246" lon="3.05116">
        <ele>448.259399</ele>
        <time>2008-06-03T13:08:21Z</time>
      </trkpt>
      <trkpt lat="45.86262" lon="3.0512">
        <ele>448.54953</ele>
        <time>2008-06-03T13:08:34Z</time>
      </trkpt>
      <trkpt lat="45.86281" lon="3.05124">
        <ele>448.807465</ele>
        <time>2008-06-03T13:08:47Z</time>
      </trkpt>
      <trkpt lat="45.86301" lon="3.05129">
        <ele>449.527252</ele>
        <time>2008-06-03T13:08:58Z</time>
      </trkpt>
      <trkpt lat="45.86316" lon="3.05136">
        <ele>450.19046</ele>
        <time>2008-06-03T13:09:06Z</time>
      </trkpt>
      <trkpt lat="45.86334" lon="3.05148">
        <ele>450.537598</ele>
        <time>2008-06-03T13:09:18Z</time>
      </trkpt>
      <trkpt lat="45.86348" lon="3.05157">
        <ele>451.014709</ele>
        <time>2008-06-03T13:09:31Z</time>
      </trkpt>
      <trkpt lat="45.8636" lon="3.05165">
        <ele>451.289886</ele>
        <time>2008-06-03T13:09:44Z</time>
      </trkpt>
      <trkpt lat="45.86371" lon="3.05176">
        <ele>450.954926</ele>
        <time>2008-06-03T13:09:57Z</time>
      </trkpt>
      <trkpt lat="45.86383" lon="3.05189">
        <ele>450.44342</ele>
        <time>2008-06-03T13:10:11Z</time>
      </trkpt>
      <trkpt lat="45.86398" lon="3.05205">
        <ele>451.032471</ele>
        <time>2008-06-03T13:10:28Z</time>
      </trkpt>
      <trkpt lat="45.86422" lon="3.05219">
        <ele>452.058411</ele>
        <time>2008-06-03T13:10:43Z</time>
      </trkpt>
      <trkpt lat="45.86422" lon="3.05221">
        <ele>451.940369</ele>
        <time>2008-06-03T13:10:44Z</time>
      </trkpt>
      <trkpt lat="45.86425" lon="3.05225">
        <ele>451.801453</ele>
        <time>2008-06-03T13:10:47Z</time>
      </trkpt>
      <trkpt lat="45.86437" lon="3.05234">
        <ele>452.087952</ele>
        <time>2008-06-03T13:11:00Z</time>
      </trkpt>
      <trkpt lat="45.86452" lon="3.05245">
        <ele>452.056061</ele>
        <time>2008-06-03T13:11:11Z</time>
      </trkpt>
      <trkpt lat="45.86466" lon="3.05264">
        <ele>451.249451</ele>
        <time>2008-06-03T13:11:27Z</time>
      </trkpt>
      <trkpt lat="45.86485" lon="3.0528">
        <ele>451.329529</ele>
        <time>2008-06-03T13:11:43Z</time>
      </trkpt>
      <trkpt lat="45.86504" lon="3.05292">
        <ele>451.21051</ele>
        <time>2008-06-03T13:11:58Z</time>
      </trkpt>
      <trkpt lat="45.86506" lon="3.05294">
        <ele>451.176025</ele>
        <time>2008-06-03T13:12:00Z</time>
      </trkpt>
      <trkpt lat="45.86516" lon="3.0532">
        <ele>449.124207</ele>
        <time>2008-06-03T13:12:15Z</time>
      </trkpt>
      <trkpt lat="45.8653" lon="3.05337">
        <ele>447.851135</ele>
        <time>2008-06-03T13:12:29Z</time>
      </trkpt>
      <trkpt lat="45.86549" lon="3.05359">
        <ele>445.775879</ele>
        <time>2008-06-03T13:12:49Z</time>
      </trkpt>
      <trkpt lat="45.8656" lon="3.05364">
        <ele>445.059326</ele>
        <time>2008-06-03T13:13:05Z</time>
      </trkpt>
      <trkpt lat="45.86559" lon="3.05363">
        <ele>445.153534</ele>
        <time>2008-06-03T13:13:36Z</time>
      </trkpt>
      <trkpt lat="45.8656" lon="3.05363">
        <ele>445.046082</ele>
        <time>2008-06-03T13:13:55Z</time>
      </trkpt>
      <trkpt lat="45.86578" lon="3.05382">
        <ele>442.899475</ele>
        <time>2008-06-03T13:14:11Z</time>
      </trkpt>
      <trkpt lat="45.86596" lon="3.05414">
        <ele>440.906921</ele>
        <time>2008-06-03T13:14:32Z</time>
      </trkpt>
      <trkpt lat="45.86613" lon="3.05438">
        <ele>440.103729</ele>
        <time>2008-06-03T13:14:50Z</time>
      </trkpt>
      <trkpt lat="45.86629" lon="3.0546">
        <ele>439.636505</ele>
        <time>2008-06-03T13:15:08Z</time>
      </trkpt>
      <trkpt lat="45.86643" lon="3.05482">
        <ele>438.943695</ele>
        <time>2008-06-03T13:15:23Z</time>
      </trkpt>
      <trkpt lat="45.86661" lon="3.05505">
        <ele>438.150208</ele>
        <time>2008-06-03T13:15:41Z</time>
      </trkpt>
      <trkpt lat="45.86681" lon="3.05535">
        <ele>437.162506</ele>
        <time>2008-06-03T13:16:02Z</time>
      </trkpt>
      <trkpt lat="45.86688" lon="3.05567">
        <ele>436.319153</ele>
        <time>2008-06-03T13:16:20Z</time>
      </trkpt>
      <trkpt lat="45.86706" lon="3.05585">
        <ele>436.35202</ele>
        <time>2008-06-03T13:16:37Z</time>
      </trkpt>
      <trkpt lat="45.86726" lon="3.05593">
        <ele>436.936249</ele>
        <time>2008-06-03T13:16:56Z</time>
      </trkpt>
      <trkpt lat="45.8674" lon="3.056">
        <ele>437.311035</ele>
        <time>2008-06-03T13:17:11Z</time>
      </trkpt>
      <trkpt lat="45.86753" lon="3.05605">
        <ele>437.454437</ele>
        <time>2008-06-03T13:17:26Z</time>
      </trkpt>
      <trkpt lat="45.86769" lon="3.0561">
        <ele>437.526459</ele>
        <time>2008-06-03T13:17:43Z</time>
      </trkpt>
      <trkpt lat="45.86786" lon="3.05617">
        <ele>437.273804</ele>
        <time>2008-06-03T13:18:02Z</time>
      </trkpt>
      <trkpt lat="45.86797" lon="3.05623">
        <ele>436.444</ele>
        <time>2008-06-03T13:18:14Z</time>
      </trkpt>
      <trkpt lat="45.86822" lon="3.05625">
        <ele>434.722168</ele>
        <time>2008-06-03T13:18:29Z</time>
      </trkpt>
      <trkpt lat="45.86828" lon="3.05629">
        <ele>434.054718</ele>
        <time>2008-06-03T13:18:36Z</time>
      </trkpt>
      <trkpt lat="45.86837" lon="3.05632">
        <ele>432.970306</ele>
        <time>2008-06-03T13:18:44Z</time>
      </trkpt>
      <trkpt lat="45.86857" lon="3.05639">
        <ele>429.921509</ele>
        <time>2008-06-03T13:19:02Z</time>
      </trkpt>
      <trkpt lat="45.86879" lon="3.05645">
        <ele>427.942444</ele>
        <time>2008-06-03T13:19:18Z</time>
      </trkpt>
      <trkpt lat="45.86907" lon="3.05655">
        <ele>428.909912</ele>
        <time>2008-06-03T13:19:33Z</time>
      </trkpt>
      <trkpt lat="45.86932" lon="3.05672">
        <ele>428.173553</ele>
        <time>2008-06-03T13:19:49Z</time>
      </trkpt>
      <trkpt lat="45.86946" lon="3.05697">
        <ele>426.460266</ele>
        <time>2008-06-03T13:20:05Z</time>
      </trkpt>
      <trkpt lat="45.86961" lon="3.05721">
        <ele>425.971344</ele>
        <time>2008-06-03T13:20:22Z</time>
      </trkpt>
      <trkpt lat="45.86968" lon="3.0573">
        <ele>425.442322</ele>
        <time>2008-06-03T13:20:29Z</time>
      </trkpt>
      <trkpt lat="45.86974" lon="3.05741">
        <ele>424.650452</ele>
        <time>2008-06-03T13:20:37Z</time>
      </trkpt>
      <trkpt lat="45.86979" lon="3.05774">
        <ele>421.911041</ele>
        <time>2008-06-03T13:20:54Z</time>
      </trkpt>
      <trkpt lat="45.86981" lon="3.05783">
        <ele>421.449463</ele>
        <time>2008-06-03T13:21:00Z</time>
      </trkpt>
      <trkpt lat="45.86989" lon="3.05823">
        <ele>419.557861</ele>
        <time>2008-06-03T13:21:22Z</time>
      </trkpt>
      <trkpt lat="45.86997" lon="3.05858">
        <ele>417.719116</ele>
        <time>2008-06-03T13:21:39Z</time>
      </trkpt>
      <trkpt lat="45.87012" lon="3.05886">
        <ele>417.271362</ele>
        <time>2008-06-03T13:21:58Z</time>
      </trkpt>
      <trkpt lat="45.87023" lon="3.05905">
        <ele>418.887817</ele>
        <time>2008-06-03T13:22:11Z</time>
      </trkpt>
      <trkpt lat="45.87027" lon="3.05939">
        <ele>418.503296</ele>
        <time>2008-06-03T13:22:30Z</time>
      </trkpt>
      <trkpt lat="45.87029" lon="3.05948">
        <ele>418.720917</ele>
        <time>2008-06-03T13:22:34Z</time>
      </trkpt>
      <trkpt lat="45.87036" lon="3.0598">
        <ele>419.748291</ele>
        <time>2008-06-03T13:22:52Z</time>
      </trkpt>
      <trkpt lat="45.87039" lon="3.05997">
        <ele>419.646454</ele>
        <time>2008-06-03T13:23:00Z</time>
      </trkpt>
      <trkpt lat="45.87044" lon="3.06028">
        <ele>418.717834</ele>
        <time>2008-06-03T13:23:16Z</time>
      </trkpt>
      <trkpt lat="45.87048" lon="3.06044">
        <ele>418.367218</ele>
        <time>2008-06-03T13:23:25Z</time>
      </trkpt>
      <trkpt lat="45.87057" lon="3.06072">
        <ele>418.826813</ele>
        <time>2008-06-03T13:23:39Z</time>
      </trkpt>
      <trkpt lat="45.8707" lon="3.06105">
        <ele>419.082428</ele>
        <time>2008-06-03T13:23:56Z</time>
      </trkpt>
      <trkpt lat="45.87081" lon="3.06134">
        <ele>419.322235</ele>
        <time>2008-06-03T13:24:12Z</time>
      </trkpt>
      <trkpt lat="45.871" lon="3.06164">
        <ele>420.049194</ele>
        <time>2008-06-03T13:24:29Z</time>
      </trkpt>
      <trkpt lat="45.87112" lon="3.062">
        <ele>419.707397</ele>
        <time>2008-06-03T13:24:48Z</time>
      </trkpt>
      <trkpt lat="45.8712" lon="3.06225">
        <ele>418.565094</ele>
        <time>2008-06-03T13:25:07Z</time>
      </trkpt>
      <trkpt lat="45.8712" lon="3.06227">
        <ele>418.412262</ele>
        <time>2008-06-03T13:25:26Z</time>
      </trkpt>
      <trkpt lat="45.8712" lon="3.06226">
        <ele>418.509979</ele>
        <time>2008-06-03T13:25:44Z</time>
      </trkpt>
      <trkpt lat="45.8712" lon="3.06229">
        <ele>418.279572</ele>
        <time>2008-06-03T13:26:01Z</time>
      </trkpt>
      <trkpt lat="45.8712" lon="3.06229">
        <ele>418.299683</ele>
        <time>2008-06-03T13:26:19Z</time>
      </trkpt>
      <trkpt lat="45.87121" lon="3.0623">
        <ele>418.281647</ele>
        <time>2008-06-03T13:27:00Z</time>
      </trkpt>
      <trkpt lat="45.8712" lon="3.06231">
        <ele>418.171875</ele>
        <time>2008-06-03T13:27:28Z</time>
      </trkpt>
      <trkpt lat="45.8712" lon="3.06234">
        <ele>418.0672</ele>
        <time>2008-06-03T13:28:27Z</time>
      </trkpt>
      <trkpt lat="45.87121" lon="3.06232">
        <ele>418.150635</ele>
        <time>2008-06-03T13:28:48Z</time>
      </trkpt>
      <trkpt lat="45.87121" lon="3.06231">
        <ele>418.176941</ele>
        <time>2008-06-03T13:29:48Z</time>
      </trkpt>
      <trkpt lat="45.87121" lon="3.06239">
        <ele>417.928497</ele>
        <time>2008-06-03T13:30:00Z</time>
      </trkpt>
      <trkpt lat="45.87125" lon="3.06268">
        <ele>416.992523</ele>
        <time>2008-06-03T13:30:20Z</time>
      </trkpt>
      <trkpt lat="45.87129" lon="3.06308">
        <ele>416</ele>
        <time>2008-06-03T13:30:41Z</time>
      </trkpt>
      <trkpt lat="45.8713" lon="3.06339">
        <ele>416</ele>
        <time>2008-06-03T13:30:57Z</time>
      </trkpt>
      <trkpt lat="45.8713" lon="3.0637">
        <ele>415.772369</ele>
        <time>2008-06-03T13:31:13Z</time>
      </trkpt>
      <trkpt lat="45.87132" lon="3.06405">
        <ele>415.120209</ele>
        <time>2008-06-03T13:31:31Z</time>
      </trkpt>
      <trkpt lat="45.87131" lon="3.06414">
        <ele>414.903381</ele>
        <time>2008-06-03T13:31:45Z</time>
      </trkpt>
      <trkpt lat="45.8713" lon="3.06438">
        <ele>413.900696</ele>
        <time>2008-06-03T13:32:00Z</time>
      </trkpt>
      <trkpt lat="45.87128" lon="3.06459">
        <ele>412.617706</ele>
        <time>2008-06-03T13:32:13Z</time>
      </trkpt>
      <trkpt lat="45.87123" lon="3.06493">
        <ele>410.056244</ele>
        <time>2008-06-03T13:32:31Z</time>
      </trkpt>
      <trkpt lat="45.87128" lon="3.06534">
        <ele>407.290039</ele>
        <time>2008-06-03T13:32:51Z</time>
      </trkpt>
      <trkpt lat="45.87141" lon="3.06573">
        <ele>406.115875</ele>
        <time>2008-06-03T13:33:13Z</time>
      </trkpt>
      <trkpt lat="45.87152" lon="3.06612">
        <ele>405.094177</ele>
        <time>2008-06-03T13:33:34Z</time>
      </trkpt>
      <trkpt lat="45.87164" lon="3.0665">
        <ele>404.624542</ele>
        <time>2008-06-03T13:33:56Z</time>
      </trkpt>
      <trkpt lat="45.87169" lon="3.06669">
        <ele>404.328033</ele>
        <time>2008-06-03T13:34:07Z</time>
      </trkpt>
      <trkpt lat="45.87173" lon="3.06687">
        <ele>403.872589</ele>
        <time>2008-06-03T13:34:19Z</time>
      </trkpt>
      <trkpt lat="45.87175" lon="3.06701">
        <ele>403.158325</ele>
        <time>2008-06-03T13:34:27Z</time>
      </trkpt>
      <trkpt lat="45.87186" lon="3.06736">
        <ele>402.158783</ele>
        <time>2008-06-03T13:34:48Z</time>
      </trkpt>
      <trkpt lat="45.87192" lon="3.06766">
        <ele>400.987457</ele>
        <time>2008-06-03T13:35:06Z</time>
      </trkpt>
      <trkpt lat="45.87189" lon="3.06774">
        <ele>400.196533</ele>
        <time>2008-06-03T13:35:16Z</time>
      </trkpt>
      <trkpt lat="45.87173" lon="3.06762">
        <ele>399.045044</ele>
        <time>2008-06-03T13:35:32Z</time>
      </trkpt>
      <trkpt lat="45.87166" lon="3.06752">
        <ele>398.732239</ele>
        <time>2008-06-03T13:35:39Z</time>
      </trkpt>
      <trkpt lat="45.87155" lon="3.06724">
        <ele>399.238495</ele>
        <time>2008-06-03T13:35:57Z</time>
      </trkpt>
      <trkpt lat="45.87144" lon="3.06703">
        <ele>399.373993</ele>
        <time>2008-06-03T13:36:11Z</time>
      </trkpt>
      <trkpt lat="45.87132" lon="3.06684">
        <ele>399.324677</ele>
        <time>2008-06-03T13:36:26Z</time>
      </trkpt>
      <trkpt lat="45.8712" lon="3.06662">
        <ele>398.505035</ele>
        <time>2008-06-03T13:36:42Z</time>
      </trkpt>
      <trkpt lat="45.87108" lon="3.06642">
        <ele>397.89859</ele>
        <time>2008-06-03T13:36:54Z</time>
      </trkpt>
      <trkpt lat="45.87091" lon="3.06617">
        <ele>396.915802</ele>
        <time>2008-06-03T13:37:12Z</time>
      </trkpt>
      <trkpt lat="45.87078" lon="3.06596">
        <ele>396.440765</ele>
        <time>2008-06-03T13:37:27Z</time>
      </trkpt>
      <trkpt lat="45.87066" lon="3.06576">
        <ele>396.027374</ele>
        <time>2008-06-03T13:37:41Z</time>
      </trkpt>
      <trkpt lat="45.8705" lon="3.06557">
        <ele>395.139648</ele>
        <time>2008-06-03T13:37:56Z</time>
      </trkpt>
      <trkpt lat="45.87037" lon="3.06542">
        <ele>394.957214</ele>
        <time>2008-06-03T13:38:10Z</time>
      </trkpt>
      <trkpt lat="45.87023" lon="3.06531">
        <ele>394.253693</ele>
        <time>2008-06-03T13:38:23Z</time>
      </trkpt>
      <trkpt lat="45.8701" lon="3.06535">
        <ele>392.674072</ele>
        <time>2008-06-03T13:38:35Z</time>
      </trkpt>
      <trkpt lat="45.86999" lon="3.06547">
        <ele>391.230621</ele>
        <time>2008-06-03T13:38:48Z</time>
      </trkpt>
      <trkpt lat="45.86988" lon="3.06558">
        <ele>391.327209</ele>
        <time>2008-06-03T13:38:59Z</time>
      </trkpt>
      <trkpt lat="45.86972" lon="3.0657">
        <ele>391.860016</ele>
        <time>2008-06-03T13:39:15Z</time>
      </trkpt>
      <trkpt lat="45.86956" lon="3.06581">
        <ele>392.550018</ele>
        <time>2008-06-03T13:39:30Z</time>
      </trkpt>
      <trkpt lat="45.86947" lon="3.06587">
        <ele>393.460449</ele>
        <time>2008-06-03T13:39:39Z</time>
      </trkpt>
      <trkpt lat="45.8693" lon="3.06595">
        <ele>395.273865</ele>
        <time>2008-06-03T13:39:53Z</time>
      </trkpt>
      <trkpt lat="45.8692" lon="3.06604">
        <ele>396.543304</ele>
        <time>2008-06-03T13:40:03Z</time>
      </trkpt>
      <trkpt lat="45.86916" lon="3.0662">
        <ele>397.882141</ele>
        <time>2008-06-03T13:40:15Z</time>
      </trkpt>
      <trkpt lat="45.86911" lon="3.06643">
        <ele>400.284088</ele>
        <time>2008-06-03T13:40:32Z</time>
      </trkpt>
      <trkpt lat="45.8691" lon="3.06664">
        <ele>401.951813</ele>
        <time>2008-06-03T13:40:46Z</time>
      </trkpt>
      <trkpt lat="45.86906" lon="3.06681">
        <ele>403.689514</ele>
        <time>2008-06-03T13:41:00Z</time>
      </trkpt>
      <trkpt lat="45.86897" lon="3.06693">
        <ele>406.089722</ele>
        <time>2008-06-03T13:41:14Z</time>
      </trkpt>
      <trkpt lat="45.86888" lon="3.0671">
        <ele>409.480713</ele>
        <time>2008-06-03T13:41:29Z</time>
      </trkpt>
      <trkpt lat="45.86878" lon="3.0673">
        <ele>413.541077</ele>
        <time>2008-06-03T13:41:44Z</time>
      </trkpt>
      <trkpt lat="45.8687" lon="3.06742">
        <ele>416.408539</ele>
        <time>2008-06-03T13:41:56Z</time>
      </trkpt>
      <trkpt lat="45.8686" lon="3.06756">
        <ele>418.965057</ele>
        <time>2008-06-03T13:42:11Z</time>
      </trkpt>
      <trkpt lat="45.86849" lon="3.06765">
        <ele>421.064209</ele>
        <time>2008-06-03T13:42:24Z</time>
      </trkpt>
      <trkpt lat="45.86839" lon="3.06772">
        <ele>422.79715</ele>
        <time>2008-06-03T13:42:37Z</time>
      </trkpt>
      <trkpt lat="45.86827" lon="3.06782">
        <ele>425.297791</ele>
        <time>2008-06-03T13:42:51Z</time>
      </trkpt>
      <trkpt lat="45.86816" lon="3.06791">
        <ele>427.402252</ele>
        <time>2008-06-03T13:43:03Z</time>
      </trkpt>
      <trkpt lat="45.868" lon="3.06801">
        <ele>429.649536</ele>
        <time>2008-06-03T13:43:18Z</time>
      </trkpt>
      <trkpt lat="45.86781" lon="3.06809">
        <ele>431.898163</ele>
        <time>2008-06-03T13:43:36Z</time>
      </trkpt>
      <trkpt lat="45.86763" lon="3.06819">
        <ele>433.966003</ele>
        <time>2008-06-03T13:43:53Z</time>
      </trkpt>
      <trkpt lat="45.86754" lon="3.06833">
        <ele>436.169159</ele>
        <time>2008-06-03T13:44:09Z</time>
      </trkpt>
      <trkpt lat="45.86755" lon="3.06841">
        <ele>436.919464</ele>
        <time>2008-06-03T13:44:14Z</time>
      </trkpt>
      <trkpt lat="45.86758" lon="3.06847">
        <ele>437.405853</ele>
        <time>2008-06-03T13:44:18Z</time>
      </trkpt>
      <trkpt lat="45.8677" lon="3.06874">
        <ele>438.710419</ele>
        <time>2008-06-03T13:44:35Z</time>
      </trkpt>
      <trkpt lat="45.86771" lon="3.06877">
        <ele>438.734222</ele>
        <time>2008-06-03T13:44:37Z</time>
      </trkpt>
      <trkpt lat="45.86774" lon="3.06882">
        <ele>438.661133</ele>
        <time>2008-06-03T13:44:43Z</time>
      </trkpt>
      <trkpt lat="45.86776" lon="3.0688">
        <ele>438.324097</ele>
        <time>2008-06-03T13:44:47Z</time>
      </trkpt>
      <trkpt lat="45.86779" lon="3.06879">
        <ele>437.897339</ele>
        <time>2008-06-03T13:44:51Z</time>
      </trkpt>
      <trkpt lat="45.86781" lon="3.06886">
        <ele>437.851471</ele>
        <time>2008-06-03T13:45:02Z</time>
      </trkpt>
      <trkpt lat="45.86778" lon="3.06887">
        <ele>438.269958</ele>
        <time>2008-06-03T13:45:34Z</time>
      </trkpt>
      <trkpt lat="45.86778" lon="3.06886">
        <ele>438.300598</ele>
        <time>2008-06-03T13:45:52Z</time>
      </trkpt>
      <trkpt lat="45.86773" lon="3.0688">
        <ele>438.602356</ele>
        <time>2008-06-03T13:46:00Z</time>
      </trkpt>
      <trkpt lat="45.86773" lon="3.06883">
        <ele>438.764404</ele>
        <time>2008-06-03T13:46:02Z</time>
      </trkpt>
      <trkpt lat="45.86783" lon="3.06915">
        <ele>438.980316</ele>
        <time>2008-06-03T13:46:20Z</time>
      </trkpt>
      <trkpt lat="45.86788" lon="3.06938">
        <ele>439.295593</ele>
        <time>2008-06-03T13:46:35Z</time>
      </trkpt>
      <trkpt lat="45.86794" lon="3.06979">
        <ele>440.012421</ele>
        <time>2008-06-03T13:46:58Z</time>
      </trkpt>
      <trkpt lat="45.86799" lon="3.0702">
        <ele>440.846497</ele>
        <time>2008-06-03T13:47:21Z</time>
      </trkpt>
      <trkpt lat="45.86798" lon="3.07028">
        <ele>441.230713</ele>
        <time>2008-06-03T13:47:35Z</time>
      </trkpt>
      <trkpt lat="45.86799" lon="3.07028">
        <ele>441.108795</ele>
        <time>2008-06-03T13:47:47Z</time>
      </trkpt>
      <trkpt lat="45.86802" lon="3.07046">
        <ele>441.192078</ele>
        <time>2008-06-03T13:48:00Z</time>
      </trkpt>
      <trkpt lat="45.86815" lon="3.07075">
        <ele>439.995941</ele>
        <time>2008-06-03T13:48:17Z</time>
      </trkpt>
      <trkpt lat="45.86828" lon="3.07104">
        <ele>439.003418</ele>
        <time>2008-06-03T13:48:34Z</time>
      </trkpt>
      <trkpt lat="45.86841" lon="3.07132">
        <ele>437.941315</ele>
        <time>2008-06-03T13:48:51Z</time>
      </trkpt>
      <trkpt lat="45.86854" lon="3.07162">
        <ele>436.645538</ele>
        <time>2008-06-03T13:49:08Z</time>
      </trkpt>
      <trkpt lat="45.86866" lon="3.07205">
        <ele>435.464203</ele>
        <time>2008-06-03T13:49:29Z</time>
      </trkpt>
      <trkpt lat="45.86873" lon="3.07237">
        <ele>434.571991</ele>
        <time>2008-06-03T13:49:45Z</time>
      </trkpt>
      <trkpt lat="45.86875" lon="3.07261">
        <ele>434.213165</ele>
        <time>2008-06-03T13:49:58Z</time>
      </trkpt>
      <trkpt lat="45.86876" lon="3.07264">
        <ele>434.05722</ele>
        <time>2008-06-03T13:50:00Z</time>
      </trkpt>
      <trkpt lat="45.86883" lon="3.07307">
        <ele>433.184601</ele>
        <time>2008-06-03T13:50:21Z</time>
      </trkpt>
      <trkpt lat="45.86893" lon="3.07335">
        <ele>431.880066</ele>
        <time>2008-06-03T13:50:36Z</time>
      </trkpt>
      <trkpt lat="45.86895" lon="3.07342">
        <ele>431.611725</ele>
        <time>2008-06-03T13:50:40Z</time>
      </trkpt>
      <trkpt lat="45.86906" lon="3.07371">
        <ele>430.030273</ele>
        <time>2008-06-03T13:50:58Z</time>
      </trkpt>
      <trkpt lat="45.8691" lon="3.07393">
        <ele>429.273407</ele>
        <time>2008-06-03T13:51:12Z</time>
      </trkpt>
      <trkpt lat="45.86911" lon="3.07423">
        <ele>428.552399</ele>
        <time>2008-06-03T13:51:27Z</time>
      </trkpt>
      <trkpt lat="45.86917" lon="3.07454">
        <ele>427.041382</ele>
        <time>2008-06-03T13:51:45Z</time>
      </trkpt>
      <trkpt lat="45.86925" lon="3.07492">
        <ele>423.871429</ele>
        <time>2008-06-03T13:52:05Z</time>
      </trkpt>
      <trkpt lat="45.86923" lon="3.07519">
        <ele>422.612854</ele>
        <time>2008-06-03T13:52:22Z</time>
      </trkpt>
      <trkpt lat="45.86916" lon="3.07541">
        <ele>422.548767</ele>
        <time>2008-06-03T13:52:38Z</time>
      </trkpt>
      <trkpt lat="45.8691" lon="3.07572">
        <ele>421.61908</ele>
        <time>2008-06-03T13:52:54Z</time>
      </trkpt>
      <trkpt lat="45.8691" lon="3.07597">
        <ele>420.458984</ele>
        <time>2008-06-03T13:53:08Z</time>
      </trkpt>
      <trkpt lat="45.86911" lon="3.07622">
        <ele>419.15741</ele>
        <time>2008-06-03T13:53:23Z</time>
      </trkpt>
      <trkpt lat="45.86917" lon="3.07652">
        <ele>417.282715</ele>
        <time>2008-06-03T13:53:38Z</time>
      </trkpt>
      <trkpt lat="45.86929" lon="3.0768">
        <ele>415.329376</ele>
        <time>2008-06-03T13:53:54Z</time>
      </trkpt>
      <trkpt lat="45.86945" lon="3.07706">
        <ele>412.724945</ele>
        <time>2008-06-03T13:54:12Z</time>
      </trkpt>
      <trkpt lat="45.86945" lon="3.07707">
        <ele>412.590363</ele>
        <time>2008-06-03T13:54:13Z</time>
      </trkpt>
      <trkpt lat="45.86946" lon="3.0771">
        <ele>412.392914</ele>
        <time>2008-06-03T13:54:15Z</time>
      </trkpt>
      <trkpt lat="45.86948" lon="3.07713">
        <ele>412.138947</ele>
        <time>2008-06-03T13:54:17Z</time>
      </trkpt>
      <trkpt lat="45.8695" lon="3.0774">
        <ele>411.32489</ele>
        <time>2008-06-03T13:54:33Z</time>
      </trkpt>
      <trkpt lat="45.86958" lon="3.07771">
        <ele>409.843536</ele>
        <time>2008-06-03T13:54:51Z</time>
      </trkpt>
      <trkpt lat="45.86965" lon="3.07783">
        <ele>408.418945</ele>
        <time>2008-06-03T13:55:00Z</time>
      </trkpt>
      <trkpt lat="45.86969" lon="3.0779">
        <ele>407.502106</ele>
        <time>2008-06-03T13:55:05Z</time>
      </trkpt>
      <trkpt lat="45.86981" lon="3.07822">
        <ele>403.653412</ele>
        <time>2008-06-03T13:55:26Z</time>
      </trkpt>
      <trkpt lat="45.86978" lon="3.07848">
        <ele>403.017975</ele>
        <time>2008-06-03T13:55:41Z</time>
      </trkpt>
      <trkpt lat="45.8698" lon="3.07874">
        <ele>401.832581</ele>
        <time>2008-06-03T13:55:56Z</time>
      </trkpt>
      <trkpt lat="45.86984" lon="3.07895">
        <ele>400.265472</ele>
        <time>2008-06-03T13:56:07Z</time>
      </trkpt>
      <trkpt lat="45.86993" lon="3.07924">
        <ele>397.526581</ele>
        <time>2008-06-03T13:56:23Z</time>
      </trkpt>
      <trkpt lat="45.86998" lon="3.07956">
        <ele>396.148376</ele>
        <time>2008-06-03T13:56:40Z</time>
      </trkpt>
      <trkpt lat="45.86997" lon="3.07987">
        <ele>396.365112</ele>
        <time>2008-06-03T13:56:58Z</time>
      </trkpt>
      <trkpt lat="45.86997" lon="3.07991">
        <ele>396.43396</ele>
        <time>2008-06-03T13:57:00Z</time>
      </trkpt>
      <trkpt lat="45.87006" lon="3.08026">
        <ele>395.065247</ele>
        <time>2008-06-03T13:57:20Z</time>
      </trkpt>
      <trkpt lat="45.87019" lon="3.08059">
        <ele>392.649323</ele>
        <time>2008-06-03T13:57:40Z</time>
      </trkpt>
      <trkpt lat="45.87031" lon="3.0809">
        <ele>390.093201</ele>
        <time>2008-06-03T13:57:59Z</time>
      </trkpt>
      <trkpt lat="45.87041" lon="3.08122">
        <ele>387.600677</ele>
        <time>2008-06-03T13:58:18Z</time>
      </trkpt>
      <trkpt lat="45.87051" lon="3.08162">
        <ele>385.264587</ele>
        <time>2008-06-03T13:58:41Z</time>
      </trkpt>
      <trkpt lat="45.87062" lon="3.08203">
        <ele>383.101532</ele>
        <time>2008-06-03T13:59:04Z</time>
      </trkpt>
      <trkpt lat="45.8707" lon="3.08226">
        <ele>381.694061</ele>
        <time>2008-06-03T13:59:18Z</time>
      </trkpt>
      <trkpt lat="45.87077" lon="3.08251">
        <ele>380.931427</ele>
        <time>2008-06-03T13:59:33Z</time>
      </trkpt>
      <trkpt lat="45.87071" lon="3.08271">
        <ele>381.989929</ele>
        <time>2008-06-03T13:59:48Z</time>
      </trkpt>
      <trkpt lat="45.87053" lon="3.08278">
        <ele>384.612518</ele>
        <time>2008-06-03T14:00:05Z</time>
      </trkpt>
      <trkpt lat="45.87037" lon="3.08299">
        <ele>386.925476</ele>
        <time>2008-06-03T14:00:24Z</time>
      </trkpt>
      <trkpt lat="45.87028" lon="3.08319">
        <ele>388.492096</ele>
        <time>2008-06-03T14:00:38Z</time>
      </trkpt>
      <trkpt lat="45.87017" lon="3.08346">
        <ele>390.643646</ele>
        <time>2008-06-03T14:00:57Z</time>
      </trkpt>
      <trkpt lat="45.87009" lon="3.08367">
        <ele>392.914825</ele>
        <time>2008-06-03T14:01:11Z</time>
      </trkpt>
      <trkpt lat="45.8701" lon="3.08388">
        <ele>394.055328</ele>
        <time>2008-06-03T14:01:24Z</time>
      </trkpt>
      <trkpt lat="45.87024" lon="3.08423">
        <ele>394.628906</ele>
        <time>2008-06-03T14:01:45Z</time>
      </trkpt>
      <trkpt lat="45.87037" lon="3.08447">
        <ele>394.953491</ele>
        <time>2008-06-03T14:02:02Z</time>
      </trkpt>
      <trkpt lat="45.87038" lon="3.0845">
        <ele>395.015961</ele>
        <time>2008-06-03T14:02:04Z</time>
      </trkpt>
      <trkpt lat="45.87056" lon="3.0847">
        <ele>395.131226</ele>
        <time>2008-06-03T14:02:23Z</time>
      </trkpt>
      <trkpt lat="45.87071" lon="3.08485">
        <ele>395.654724</ele>
        <time>2008-06-03T14:02:39Z</time>
      </trkpt>
      <trkpt lat="45.87072" lon="3.08486">
        <ele>395.731049</ele>
        <time>2008-06-03T14:02:40Z</time>
      </trkpt>
      <trkpt lat="45.87076" lon="3.08491">
        <ele>396.021332</ele>
        <time>2008-06-03T14:02:44Z</time>
      </trkpt>
      <trkpt lat="45.87091" lon="3.0851">
        <ele>395.545166</ele>
        <time>2008-06-03T14:03:00Z</time>
      </trkpt>
      <trkpt lat="45.87103" lon="3.08529">
        <ele>395.33551</ele>
        <time>2008-06-03T14:03:14Z</time>
      </trkpt>
      <trkpt lat="45.87108" lon="3.08542">
        <ele>395.990204</ele>
        <time>2008-06-03T14:03:23Z</time>
      </trkpt>
      <trkpt lat="45.8711" lon="3.08549">
        <ele>396.386749</ele>
        <time>2008-06-03T14:03:28Z</time>
      </trkpt>
      <trkpt lat="45.87113" lon="3.08585">
        <ele>397.22226</ele>
        <time>2008-06-03T14:03:49Z</time>
      </trkpt>
      <trkpt lat="45.87111" lon="3.08625">
        <ele>399.090759</ele>
        <time>2008-06-03T14:04:11Z</time>
      </trkpt>
      <trkpt lat="45.87105" lon="3.08651">
        <ele>401.261261</ele>
        <time>2008-06-03T14:04:27Z</time>
      </trkpt>
      <trkpt lat="45.87106" lon="3.08674">
        <ele>401.989197</ele>
        <time>2008-06-03T14:04:39Z</time>
      </trkpt>
      <trkpt lat="45.87108" lon="3.0869">
        <ele>402.955688</ele>
        <time>2008-06-03T14:04:47Z</time>
      </trkpt>
      <trkpt lat="45.87117" lon="3.08714">
        <ele>403.069092</ele>
        <time>2008-06-03T14:05:01Z</time>
      </trkpt>
      <trkpt lat="45.87125" lon="3.08735">
        <ele>403.179413</ele>
        <time>2008-06-03T14:05:12Z</time>
      </trkpt>
      <trkpt lat="45.87128" lon="3.08748">
        <ele>403.456421</ele>
        <time>2008-06-03T14:05:19Z</time>
      </trkpt>
      <trkpt lat="45.87138" lon="3.08778">
        <ele>403.078705</ele>
        <time>2008-06-03T14:05:36Z</time>
      </trkpt>
      <trkpt lat="45.87143" lon="3.08807">
        <ele>404.965698</ele>
        <time>2008-06-03T14:05:52Z</time>
      </trkpt>
      <trkpt lat="45.87142" lon="3.08814">
        <ele>405.218353</ele>
        <time>2008-06-03T14:05:56Z</time>
      </trkpt>
      <trkpt lat="45.87132" lon="3.08847">
        <ele>408.587921</ele>
        <time>2008-06-03T14:06:13Z</time>
      </trkpt>
      <trkpt lat="45.8712" lon="3.08871">
        <ele>413.259583</ele>
        <time>2008-06-03T14:06:28Z</time>
      </trkpt>
      <trkpt lat="45.8711" lon="3.08893">
        <ele>414.655701</ele>
        <time>2008-06-03T14:06:43Z</time>
      </trkpt>
      <trkpt lat="45.871" lon="3.0892">
        <ele>416.48233</ele>
        <time>2008-06-03T14:06:58Z</time>
      </trkpt>
      <trkpt lat="45.87095" lon="3.08949">
        <ele>417.387634</ele>
        <time>2008-06-03T14:07:12Z</time>
      </trkpt>
      <trkpt lat="45.87093" lon="3.08981">
        <ele>416.303497</ele>
        <time>2008-06-03T14:07:26Z</time>
      </trkpt>
      <trkpt lat="45.87095" lon="3.09009">
        <ele>414.427399</ele>
        <time>2008-06-03T14:07:39Z</time>
      </trkpt>
      <trkpt lat="45.87094" lon="3.09056">
        <ele>414.590729</ele>
        <time>2008-06-03T14:08:01Z</time>
      </trkpt>
      <trkpt lat="45.87078" lon="3.09085">
        <ele>420.606171</ele>
        <time>2008-06-03T14:08:19Z</time>
      </trkpt>
      <trkpt lat="45.87068" lon="3.09117">
        <ele>423.679993</ele>
        <time>2008-06-03T14:08:36Z</time>
      </trkpt>
      <trkpt lat="45.87066" lon="3.09122">
        <ele>424.192139</ele>
        <time>2008-06-03T14:08:39Z</time>
      </trkpt>
      <trkpt lat="45.87061" lon="3.09162">
        <ele>424.844788</ele>
        <time>2008-06-03T14:08:57Z</time>
      </trkpt>
      <trkpt lat="45.87054" lon="3.09194">
        <ele>426.026581</ele>
        <time>2008-06-03T14:09:13Z</time>
      </trkpt>
      <trkpt lat="45.87046" lon="3.09221">
        <ele>425.610352</ele>
        <time>2008-06-03T14:09:27Z</time>
      </trkpt>
      <trkpt lat="45.87033" lon="3.09252">
        <ele>426.167267</ele>
        <time>2008-06-03T14:09:44Z</time>
      </trkpt>
      <trkpt lat="45.87009" lon="3.09283">
        <ele>428.088623</ele>
        <time>2008-06-03T14:10:05Z</time>
      </trkpt>
      <trkpt lat="45.87008" lon="3.09284">
        <ele>428.150818</ele>
        <time>2008-06-03T14:10:06Z</time>
      </trkpt>
      <trkpt lat="45.86986" lon="3.09301">
        <ele>432.138733</ele>
        <time>2008-06-03T14:10:23Z</time>
      </trkpt>
      <trkpt lat="45.86966" lon="3.09331">
        <ele>433.566895</ele>
        <time>2008-06-03T14:10:42Z</time>
      </trkpt>
      <trkpt lat="45.86953" lon="3.09354">
        <ele>435.030457</ele>
        <time>2008-06-03T14:10:56Z</time>
      </trkpt>
      <trkpt lat="45.86941" lon="3.09379">
        <ele>436.214752</ele>
        <time>2008-06-03T14:11:09Z</time>
      </trkpt>
      <trkpt lat="45.8693" lon="3.09406">
        <ele>437.54071</ele>
        <time>2008-06-03T14:11:24Z</time>
      </trkpt>
      <trkpt lat="45.86925" lon="3.0943">
        <ele>437.274017</ele>
        <time>2008-06-03T14:11:36Z</time>
      </trkpt>
      <trkpt lat="45.86923" lon="3.09454">
        <ele>436.229034</ele>
        <time>2008-06-03T14:11:46Z</time>
      </trkpt>
      <trkpt lat="45.86918" lon="3.09481">
        <ele>436.532257</ele>
        <time>2008-06-03T14:11:58Z</time>
      </trkpt>
      <trkpt lat="45.86899" lon="3.09518">
        <ele>438.067871</ele>
        <time>2008-06-03T14:12:18Z</time>
      </trkpt>
      <trkpt lat="45.86874" lon="3.09543">
        <ele>439.026001</ele>
        <time>2008-06-03T14:12:38Z</time>
      </trkpt>
      <trkpt lat="45.86857" lon="3.09558">
        <ele>439.538452</ele>
        <time>2008-06-03T14:12:50Z</time>
      </trkpt>
      <trkpt lat="45.86837" lon="3.09575">
        <ele>440.277771</ele>
        <time>2008-06-03T14:13:06Z</time>
      </trkpt>
      <trkpt lat="45.86823" lon="3.09581">
        <ele>441.555298</ele>
        <time>2008-06-03T14:13:17Z</time>
      </trkpt>
      <trkpt lat="45.86798" lon="3.09588">
        <ele>444.301239</ele>
        <time>2008-06-03T14:13:34Z</time>
      </trkpt>
      <trkpt lat="45.86771" lon="3.09605">
        <ele>446.741058</ele>
        <time>2008-06-03T14:13:52Z</time>
      </trkpt>
      <trkpt lat="45.86766" lon="3.09611">
        <ele>446.758759</ele>
        <time>2008-06-03T14:13:56Z</time>
      </trkpt>
      <trkpt lat="45.86756" lon="3.09639">
        <ele>445.095947</ele>
        <time>2008-06-03T14:14:13Z</time>
      </trkpt>
      <trkpt lat="45.86758" lon="3.09642">
        <ele>444.425018</ele>
        <time>2008-06-03T14:14:29Z</time>
      </trkpt>
      <trkpt lat="45.86758" lon="3.09643">
        <ele>444.446228</ele>
        <time>2008-06-03T14:15:29Z</time>
      </trkpt>
      <trkpt lat="45.86756" lon="3.09643">
        <ele>444.696045</ele>
        <time>2008-06-03T14:15:51Z</time>
      </trkpt>
      <trkpt lat="45.86756" lon="3.09642">
        <ele>444.935455</ele>
        <time>2008-06-03T14:16:35Z</time>
      </trkpt>
      <trkpt lat="45.86755" lon="3.09642">
        <ele>444.97583</ele>
        <time>2008-06-03T14:16:48Z</time>
      </trkpt>
      <trkpt lat="45.86757" lon="3.0964">
        <ele>444.75592</ele>
        <time>2008-06-03T14:17:05Z</time>
      </trkpt>
      <trkpt lat="45.86758" lon="3.09638">
        <ele>444.911346</ele>
        <time>2008-06-03T14:17:22Z</time>
      </trkpt>
      <trkpt lat="45.86755" lon="3.09641">
        <ele>445.147369</ele>
        <time>2008-06-03T14:17:49Z</time>
      </trkpt>
      <trkpt lat="45.86754" lon="3.09647">
        <ele>444.882996</ele>
        <time>2008-06-03T14:17:53Z</time>
      </trkpt>
      <trkpt lat="45.86753" lon="3.09655">
        <ele>444.602264</ele>
        <time>2008-06-03T14:17:58Z</time>
      </trkpt>
      <trkpt lat="45.86748" lon="3.09687">
        <ele>443.317444</ele>
        <time>2008-06-03T14:18:16Z</time>
      </trkpt>
      <trkpt lat="45.86744" lon="3.0971">
        <ele>442.398315</ele>
        <time>2008-06-03T14:18:30Z</time>
      </trkpt>
      <trkpt lat="45.86739" lon="3.09748">
        <ele>441.201752</ele>
        <time>2008-06-03T14:18:53Z</time>
      </trkpt>
      <trkpt lat="45.86735" lon="3.09783">
        <ele>440.543671</ele>
        <time>2008-06-03T14:19:10Z</time>
      </trkpt>
      <trkpt lat="45.86736" lon="3.09814">
        <ele>440.189148</ele>
        <time>2008-06-03T14:19:27Z</time>
      </trkpt>
      <trkpt lat="45.8674" lon="3.09847">
        <ele>440.655792</ele>
        <time>2008-06-03T14:19:46Z</time>
      </trkpt>
      <trkpt lat="45.86745" lon="3.09895">
        <ele>443.157684</ele>
        <time>2008-06-03T14:20:11Z</time>
      </trkpt>
      <trkpt lat="45.8675" lon="3.09926">
        <ele>444.86142</ele>
        <time>2008-06-03T14:20:29Z</time>
      </trkpt>
      <trkpt lat="45.86754" lon="3.09953">
        <ele>446.433685</ele>
        <time>2008-06-03T14:20:45Z</time>
      </trkpt>
      <trkpt lat="45.86759" lon="3.09983">
        <ele>447.801178</ele>
        <time>2008-06-03T14:21:03Z</time>
      </trkpt>
      <trkpt lat="45.86766" lon="3.10014">
        <ele>448.976532</ele>
        <time>2008-06-03T14:21:23Z</time>
      </trkpt>
      <trkpt lat="45.86776" lon="3.10045">
        <ele>449.388702</ele>
        <time>2008-06-03T14:21:43Z</time>
      </trkpt>
      <trkpt lat="45.86779" lon="3.10052">
        <ele>449.346649</ele>
        <time>2008-06-03T14:21:48Z</time>
      </trkpt>
      <trkpt lat="45.86784" lon="3.10071">
        <ele>449.875488</ele>
        <time>2008-06-03T14:22:00Z</time>
      </trkpt>
      <trkpt lat="45.868" lon="3.101">
        <ele>449.252319</ele>
        <time>2008-06-03T14:22:20Z</time>
      </trkpt>
      <trkpt lat="45.86814" lon="3.10126">
        <ele>448.306244</ele>
        <time>2008-06-03T14:22:39Z</time>
      </trkpt>
      <trkpt lat="45.86834" lon="3.10163">
        <ele>447.900482</ele>
        <time>2008-06-03T14:23:05Z</time>
      </trkpt>
      <trkpt lat="45.86858" lon="3.102">
        <ele>445.938721</ele>
        <time>2008-06-03T14:23:30Z</time>
      </trkpt>
      <trkpt lat="45.86864" lon="3.1022">
        <ele>446.134369</ele>
        <time>2008-06-03T14:23:44Z</time>
      </trkpt>
      <trkpt lat="45.86873" lon="3.10251">
        <ele>446.650299</ele>
        <time>2008-06-03T14:24:02Z</time>
      </trkpt>
      <trkpt lat="45.86882" lon="3.10273">
        <ele>446.20874</ele>
        <time>2008-06-03T14:24:20Z</time>
      </trkpt>
      <trkpt lat="45.86891" lon="3.10292">
        <ele>445.578796</ele>
        <time>2008-06-03T14:24:36Z</time>
      </trkpt>
      <trkpt lat="45.86897" lon="3.10303">
        <ele>444.854614</ele>
        <time>2008-06-03T14:24:44Z</time>
      </trkpt>
      <trkpt lat="45.869" lon="3.10308">
        <ele>444.367767</ele>
        <time>2008-06-03T14:24:48Z</time>
      </trkpt>
      <trkpt lat="45.86919" lon="3.10333">
        <ele>442.140381</ele>
        <time>2008-06-03T14:25:08Z</time>
      </trkpt>
      <trkpt lat="45.8692" lon="3.10335">
        <ele>441.97464</ele>
        <time>2008-06-03T14:25:09Z</time>
      </trkpt>
      <trkpt lat="45.86925" lon="3.10341">
        <ele>441.556305</ele>
        <time>2008-06-03T14:25:14Z</time>
      </trkpt>
      <trkpt lat="45.8694" lon="3.10362">
        <ele>439.24292</ele>
        <time>2008-06-03T14:25:30Z</time>
      </trkpt>
      <trkpt lat="45.86956" lon="3.10395">
        <ele>437.209595</ele>
        <time>2008-06-03T14:25:51Z</time>
      </trkpt>
      <trkpt lat="45.86965" lon="3.10428">
        <ele>436.803467</ele>
        <time>2008-06-03T14:26:11Z</time>
      </trkpt>
      <trkpt lat="45.86969" lon="3.10454">
        <ele>437.398621</ele>
        <time>2008-06-03T14:26:27Z</time>
      </trkpt>
      <trkpt lat="45.86975" lon="3.10474">
        <ele>436.958649</ele>
        <time>2008-06-03T14:26:39Z</time>
      </trkpt>
      <trkpt lat="45.86976" lon="3.10478">
        <ele>436.808319</ele>
        <time>2008-06-03T14:26:41Z</time>
      </trkpt>
      <trkpt lat="45.86982" lon="3.10509">
        <ele>436.189789</ele>
        <time>2008-06-03T14:26:57Z</time>
      </trkpt>
      <trkpt lat="45.86989" lon="3.10532">
        <ele>434.26178</ele>
        <time>2008-06-03T14:27:09Z</time>
      </trkpt>
      <trkpt lat="45.86995" lon="3.10549">
        <ele>432.763489</ele>
        <time>2008-06-03T14:27:18Z</time>
      </trkpt>
      <trkpt lat="45.87001" lon="3.10574">
        <ele>432.90033</ele>
        <time>2008-06-03T14:27:33Z</time>
      </trkpt>
      <trkpt lat="45.8701" lon="3.10601">
        <ele>432.674469</ele>
        <time>2008-06-03T14:27:51Z</time>
      </trkpt>
      <trkpt lat="45.8702" lon="3.10626">
        <ele>431.522278</ele>
        <time>2008-06-03T14:28:07Z</time>
      </trkpt>
      <trkpt lat="45.87031" lon="3.10648">
        <ele>428.380676</ele>
        <time>2008-06-03T14:28:19Z</time>
      </trkpt>
      <trkpt lat="45.87037" lon="3.10688">
        <ele>426.433411</ele>
        <time>2008-06-03T14:28:41Z</time>
      </trkpt>
      <trkpt lat="45.87034" lon="3.1072">
        <ele>425.382629</ele>
        <time>2008-06-03T14:29:00Z</time>
      </trkpt>
      <trkpt lat="45.87031" lon="3.10743">
        <ele>424.608063</ele>
        <time>2008-06-03T14:29:16Z</time>
      </trkpt>
      <trkpt lat="45.87031" lon="3.10746">
        <ele>424.453583</ele>
        <time>2008-06-03T14:29:20Z</time>
      </trkpt>
      <trkpt lat="45.8702" lon="3.1078">
        <ele>424.570831</ele>
        <time>2008-06-03T14:29:39Z</time>
      </trkpt>
      <trkpt lat="45.8702" lon="3.10805">
        <ele>422.662811</ele>
        <time>2008-06-03T14:29:58Z</time>
      </trkpt>
      <trkpt lat="45.87014" lon="3.10808">
        <ele>424.573608</ele>
        <time>2008-06-03T14:30:11Z</time>
      </trkpt>
      <trkpt lat="45.87012" lon="3.10803">
        <ele>424.923218</ele>
        <time>2008-06-03T14:30:16Z</time>
      </trkpt>
      <trkpt lat="45.8701" lon="3.10791">
        <ele>426.444489</ele>
        <time>2008-06-03T14:30:24Z</time>
      </trkpt>
      <trkpt lat="45.87007" lon="3.10771">
        <ele>429.241119</ele>
        <time>2008-06-03T14:30:37Z</time>
      </trkpt>
      <trkpt lat="45.87007" lon="3.10769">
        <ele>429.703247</ele>
        <time>2008-06-03T14:30:38Z</time>
      </trkpt>
      <trkpt lat="45.86995" lon="3.10757">
        <ele>434.294098</ele>
        <time>2008-06-03T14:30:50Z</time>
      </trkpt>
      <trkpt lat="45.8699" lon="3.10758">
        <ele>435.982147</ele>
        <time>2008-06-03T14:30:55Z</time>
      </trkpt>
      <trkpt lat="45.86976" lon="3.10782">
        <ele>437.960815</ele>
        <time>2008-06-03T14:31:14Z</time>
      </trkpt>
      <trkpt lat="45.86972" lon="3.1082">
        <ele>437.560791</ele>
        <time>2008-06-03T14:31:34Z</time>
      </trkpt>
      <trkpt lat="45.8697" lon="3.10853">
        <ele>438.473236</ele>
        <time>2008-06-03T14:31:52Z</time>
      </trkpt>
      <trkpt lat="45.86966" lon="3.10886">
        <ele>440.356476</ele>
        <time>2008-06-03T14:32:09Z</time>
      </trkpt>
      <trkpt lat="45.86967" lon="3.10921">
        <ele>441.650055</ele>
        <time>2008-06-03T14:32:28Z</time>
      </trkpt>
      <trkpt lat="45.86962" lon="3.1095">
        <ele>441.61969</ele>
        <time>2008-06-03T14:32:45Z</time>
      </trkpt>
      <trkpt lat="45.86944" lon="3.1096">
        <ele>444.025085</ele>
        <time>2008-06-03T14:33:01Z</time>
      </trkpt>
      <trkpt lat="45.86924" lon="3.1096">
        <ele>447.627533</ele>
        <time>2008-06-03T14:33:17Z</time>
      </trkpt>
      <trkpt lat="45.86901" lon="3.10975">
        <ele>451.273895</ele>
        <time>2008-06-03T14:33:36Z</time>
      </trkpt>
      <trkpt lat="45.86887" lon="3.1099">
        <ele>453.202881</ele>
        <time>2008-06-03T14:33:51Z</time>
      </trkpt>
      <trkpt lat="45.86867" lon="3.1101">
        <ele>454.557098</ele>
        <time>2008-06-03T14:34:10Z</time>
      </trkpt>
      <trkpt lat="45.86853" lon="3.11027">
        <ele>455.355591</ele>
        <time>2008-06-03T14:34:28Z</time>
      </trkpt>
      <trkpt lat="45.86851" lon="3.1103">
        <ele>455.508942</ele>
        <time>2008-06-03T14:34:40Z</time>
      </trkpt>
      <trkpt lat="45.8685" lon="3.11032">
        <ele>455.357788</ele>
        <time>2008-06-03T14:35:00Z</time>
      </trkpt>
      <trkpt lat="45.8685" lon="3.11032">
        <ele>455.489899</ele>
        <time>2008-06-03T14:35:26Z</time>
      </trkpt>
      <trkpt lat="45.86849" lon="3.11033">
        <ele>455.657806</ele>
        <time>2008-06-03T14:35:43Z</time>
      </trkpt>
      <trkpt lat="45.86849" lon="3.11034">
        <ele>455.410004</ele>
        <time>2008-06-03T14:36:04Z</time>
      </trkpt>
      <trkpt lat="45.86838" lon="3.11041">
        <ele>457.267059</ele>
        <time>2008-06-03T14:36:24Z</time>
      </trkpt>
      <trkpt lat="45.86825" lon="3.11054">
        <ele>458.310089</ele>
        <time>2008-06-03T14:36:39Z</time>
      </trkpt>
      <trkpt lat="45.86819" lon="3.11061">
        <ele>458.206573</ele>
        <time>2008-06-03T14:36:48Z</time>
      </trkpt>
      <trkpt lat="45.86813" lon="3.11071">
        <ele>457.586212</ele>
        <time>2008-06-03T14:36:57Z</time>
      </trkpt>
      <trkpt lat="45.86809" lon="3.11074">
        <ele>457.711304</ele>
        <time>2008-06-03T14:37:04Z</time>
      </trkpt>
      <trkpt lat="45.86807" lon="3.11079">
        <ele>457.351044</ele>
        <time>2008-06-03T14:37:08Z</time>
      </trkpt>
      <trkpt lat="45.86798" lon="3.11093">
        <ele>456.808167</ele>
        <time>2008-06-03T14:37:19Z</time>
      </trkpt>
      <trkpt lat="45.86787" lon="3.11106">
        <ele>456.904938</ele>
        <time>2008-06-03T14:37:32Z</time>
      </trkpt>
      <trkpt lat="45.86765" lon="3.11118">
        <ele>458.202301</ele>
        <time>2008-06-03T14:37:52Z</time>
      </trkpt>
      <trkpt lat="45.86744" lon="3.11125">
        <ele>459.986572</ele>
        <time>2008-06-03T14:38:10Z</time>
      </trkpt>
      <trkpt lat="45.86725" lon="3.1113">
        <ele>460.593964</ele>
        <time>2008-06-03T14:38:26Z</time>
      </trkpt>
      <trkpt lat="45.86711" lon="3.11137">
        <ele>460.681061</ele>
        <time>2008-06-03T14:38:37Z</time>
      </trkpt>
      <trkpt lat="45.86705" lon="3.11138">
        <ele>461.124084</ele>
        <time>2008-06-03T14:38:55Z</time>
      </trkpt>
      <trkpt lat="45.86704" lon="3.1114">
        <ele>460.829407</ele>
        <time>2008-06-03T14:39:08Z</time>
      </trkpt>
      <trkpt lat="45.86685" lon="3.11148">
        <ele>460.575714</ele>
        <time>2008-06-03T14:39:27Z</time>
      </trkpt>
      <trkpt lat="45.86664" lon="3.11155">
        <ele>460.648346</ele>
        <time>2008-06-03T14:39:46Z</time>
      </trkpt>
      <trkpt lat="45.86643" lon="3.11162">
        <ele>460.63913</ele>
        <time>2008-06-03T14:40:03Z</time>
      </trkpt>
      <trkpt lat="45.86625" lon="3.11157">
        <ele>462.531799</ele>
        <time>2008-06-03T14:40:19Z</time>
      </trkpt>
      <trkpt lat="45.86616" lon="3.11151">
        <ele>464.041229</ele>
        <time>2008-06-03T14:40:27Z</time>
      </trkpt>
      <trkpt lat="45.86611" lon="3.11148">
        <ele>464.730835</ele>
        <time>2008-06-03T14:40:31Z</time>
      </trkpt>
      <trkpt lat="45.86594" lon="3.11132">
        <ele>468.187744</ele>
        <time>2008-06-03T14:40:48Z</time>
      </trkpt>
      <trkpt lat="45.86588" lon="3.11127">
        <ele>469.420868</ele>
        <time>2008-06-03T14:40:54Z</time>
      </trkpt>
      <trkpt lat="45.86584" lon="3.11124">
        <ele>470.110901</ele>
        <time>2008-06-03T14:40:58Z</time>
      </trkpt>
      <trkpt lat="45.86569" lon="3.1112">
        <ele>471.314117</ele>
        <time>2008-06-03T14:41:11Z</time>
      </trkpt>
      <trkpt lat="45.86558" lon="3.11132">
        <ele>470.578888</ele>
        <time>2008-06-03T14:41:26Z</time>
      </trkpt>
      <trkpt lat="45.86548" lon="3.11148">
        <ele>469.00119</ele>
        <time>2008-06-03T14:41:39Z</time>
      </trkpt>
      <trkpt lat="45.86534" lon="3.11165">
        <ele>467.935791</ele>
        <time>2008-06-03T14:41:53Z</time>
      </trkpt>
      <trkpt lat="45.86533" lon="3.11166">
        <ele>467.968475</ele>
        <time>2008-06-03T14:41:55Z</time>
      </trkpt>
      <trkpt lat="45.86508" lon="3.11177">
        <ele>469.361298</ele>
        <time>2008-06-03T14:42:14Z</time>
      </trkpt>
      <trkpt lat="45.86504" lon="3.11177">
        <ele>469.904144</ele>
        <time>2008-06-03T14:42:17Z</time>
      </trkpt>
      <trkpt lat="45.86498" lon="3.11176">
        <ele>470.83136</ele>
        <time>2008-06-03T14:42:22Z</time>
      </trkpt>
      <trkpt lat="45.86489" lon="3.11179">
        <ele>471.651947</ele>
        <time>2008-06-03T14:42:29Z</time>
      </trkpt>
      <trkpt lat="45.86461" lon="3.11179">
        <ele>473.929596</ele>
        <time>2008-06-03T14:42:50Z</time>
      </trkpt>
      <trkpt lat="45.86432" lon="3.1118">
        <ele>474.750122</ele>
        <time>2008-06-03T14:43:12Z</time>
      </trkpt>
      <trkpt lat="45.86427" lon="3.11179">
        <ele>475.085724</ele>
        <time>2008-06-03T14:43:16Z</time>
      </trkpt>
      <trkpt lat="45.86412" lon="3.11178">
        <ele>475.722748</ele>
        <time>2008-06-03T14:43:30Z</time>
      </trkpt>
      <trkpt lat="45.86402" lon="3.11179">
        <ele>475.73291</ele>
        <time>2008-06-03T14:43:38Z</time>
      </trkpt>
      <trkpt lat="45.86393" lon="3.11178">
        <ele>476.050232</ele>
        <time>2008-06-03T14:43:45Z</time>
      </trkpt>
      <trkpt lat="45.86377" lon="3.11177">
        <ele>476.242493</ele>
        <time>2008-06-03T14:43:58Z</time>
      </trkpt>
      <trkpt lat="45.86358" lon="3.11176">
        <ele>476.504059</ele>
        <time>2008-06-03T14:44:15Z</time>
      </trkpt>
      <trkpt lat="45.86333" lon="3.11175">
        <ele>476.449524</ele>
        <time>2008-06-03T14:44:33Z</time>
      </trkpt>
      <trkpt lat="45.86324" lon="3.11174">
        <ele>476.396088</ele>
        <time>2008-06-03T14:44:43Z</time>
      </trkpt>
      <trkpt lat="45.86314" lon="3.11171">
        <ele>476.62558</ele>
        <time>2008-06-03T14:44:52Z</time>
      </trkpt>
      <trkpt lat="45.86302" lon="3.11174">
        <ele>475.883362</ele>
        <time>2008-06-03T14:45:04Z</time>
      </trkpt>
      <trkpt lat="45.86287" lon="3.1117">
        <ele>476.030365</ele>
        <time>2008-06-03T14:45:19Z</time>
      </trkpt>
      <trkpt lat="45.86276" lon="3.11166">
        <ele>476.20517</ele>
        <time>2008-06-03T14:45:28Z</time>
      </trkpt>
      <trkpt lat="45.86269" lon="3.11163">
        <ele>476.643677</ele>
        <time>2008-06-03T14:45:34Z</time>
      </trkpt>
      <trkpt lat="45.86267" lon="3.11163">
        <ele>476.519318</ele>
        <time>2008-06-03T14:45:36Z</time>
      </trkpt>
      <trkpt lat="45.86262" lon="3.11163">
        <ele>476.239838</ele>
        <time>2008-06-03T14:45:40Z</time>
      </trkpt>
      <trkpt lat="45.8625" lon="3.11159">
        <ele>476.612152</ele>
        <time>2008-06-03T14:45:50Z</time>
      </trkpt>
      <trkpt lat="45.86225" lon="3.11159">
        <ele>476.02066</ele>
        <time>2008-06-03T14:46:11Z</time>
      </trkpt>
      <trkpt lat="45.86206" lon="3.11163">
        <ele>474.70816</ele>
        <time>2008-06-03T14:46:26Z</time>
      </trkpt>
      <trkpt lat="45.86191" lon="3.11167">
        <ele>473.424835</ele>
        <time>2008-06-03T14:46:39Z</time>
      </trkpt>
      <trkpt lat="45.86178" lon="3.11167">
        <ele>472.924957</ele>
        <time>2008-06-03T14:46:52Z</time>
      </trkpt>
      <trkpt lat="45.86165" lon="3.1117">
        <ele>472.13736</ele>
        <time>2008-06-03T14:47:04Z</time>
      </trkpt>
      <trkpt lat="45.86154" lon="3.1117">
        <ele>471.954681</ele>
        <time>2008-06-03T14:47:15Z</time>
      </trkpt>
      <trkpt lat="45.8614" lon="3.11163">
        <ele>472.811249</ele>
        <time>2008-06-03T14:47:27Z</time>
      </trkpt>
      <trkpt lat="45.8613" lon="3.11158">
        <ele>473.439819</ele>
        <time>2008-06-03T14:47:37Z</time>
      </trkpt>
      <trkpt lat="45.86116" lon="3.11156">
        <ele>473.395599</ele>
        <time>2008-06-03T14:47:55Z</time>
      </trkpt>
      <trkpt lat="45.86111" lon="3.11153">
        <ele>473.500275</ele>
        <time>2008-06-03T14:48:12Z</time>
      </trkpt>
      <trkpt lat="45.8611" lon="3.11151">
        <ele>473.768463</ele>
        <time>2008-06-03T14:48:48Z</time>
      </trkpt>
      <trkpt lat="45.86106" lon="3.11157">
        <ele>472.845093</ele>
        <time>2008-06-03T14:49:16Z</time>
      </trkpt>
      <trkpt lat="45.86106" lon="3.11152">
        <ele>473.447754</ele>
        <time>2008-06-03T14:49:35Z</time>
      </trkpt>
      <trkpt lat="45.86107" lon="3.11155">
        <ele>473.097473</ele>
        <time>2008-06-03T14:49:56Z</time>
      </trkpt>
      <trkpt lat="45.86104" lon="3.11158">
        <ele>472.733093</ele>
        <time>2008-06-03T14:50:13Z</time>
      </trkpt>
      <trkpt lat="45.86085" lon="3.11153">
        <ele>472.50058</ele>
        <time>2008-06-03T14:50:32Z</time>
      </trkpt>
      <trkpt lat="45.86064" lon="3.11147">
        <ele>472.017303</ele>
        <time>2008-06-03T14:50:51Z</time>
      </trkpt>
      <trkpt lat="45.86045" lon="3.11138">
        <ele>471.266388</ele>
        <time>2008-06-03T14:51:11Z</time>
      </trkpt>
      <trkpt lat="45.8603" lon="3.11127">
        <ele>470.94577</ele>
        <time>2008-06-03T14:51:28Z</time>
      </trkpt>
      <trkpt lat="45.86013" lon="3.1111">
        <ele>470.502411</ele>
        <time>2008-06-03T14:51:47Z</time>
      </trkpt>
      <trkpt lat="45.85999" lon="3.11094">
        <ele>470.519043</ele>
        <time>2008-06-03T14:52:03Z</time>
      </trkpt>
      <trkpt lat="45.85988" lon="3.11084">
        <ele>470.450104</ele>
        <time>2008-06-03T14:52:19Z</time>
      </trkpt>
      <trkpt lat="45.85971" lon="3.11065">
        <ele>470.639099</ele>
        <time>2008-06-03T14:52:34Z</time>
      </trkpt>
      <trkpt lat="45.85956" lon="3.11043">
        <ele>471.841583</ele>
        <time>2008-06-03T14:52:50Z</time>
      </trkpt>
      <trkpt lat="45.85941" lon="3.11029">
        <ele>471.76062</ele>
        <time>2008-06-03T14:53:05Z</time>
      </trkpt>
      <trkpt lat="45.85928" lon="3.11009">
        <ele>472.387787</ele>
        <time>2008-06-03T14:53:22Z</time>
      </trkpt>
      <trkpt lat="45.85917" lon="3.10986">
        <ele>473.581879</ele>
        <time>2008-06-03T14:53:39Z</time>
      </trkpt>
      <trkpt lat="45.8591" lon="3.1097">
        <ele>474.459473</ele>
        <time>2008-06-03T14:53:49Z</time>
      </trkpt>
      <trkpt lat="45.85898" lon="3.10945">
        <ele>475.691467</ele>
        <time>2008-06-03T14:54:05Z</time>
      </trkpt>
      <trkpt lat="45.85886" lon="3.10921">
        <ele>476.51181</ele>
        <time>2008-06-03T14:54:21Z</time>
      </trkpt>
      <trkpt lat="45.85877" lon="3.10897">
        <ele>477.396881</ele>
        <time>2008-06-03T14:54:35Z</time>
      </trkpt>
      <trkpt lat="45.85868" lon="3.10876">
        <ele>477.901215</ele>
        <time>2008-06-03T14:54:49Z</time>
      </trkpt>
      <trkpt lat="45.85858" lon="3.10848">
        <ele>478.56897</ele>
        <time>2008-06-03T14:55:06Z</time>
      </trkpt>
      <trkpt lat="45.85852" lon="3.10822">
        <ele>479.387695</ele>
        <time>2008-06-03T14:55:21Z</time>
      </trkpt>
      <trkpt lat="45.85842" lon="3.10793">
        <ele>479.415588</ele>
        <time>2008-06-03T14:55:36Z</time>
      </trkpt>
      <trkpt lat="45.85821" lon="3.1077">
        <ele>477.70166</ele>
        <time>2008-06-03T14:55:57Z</time>
      </trkpt>
      <trkpt lat="45.85801" lon="3.1075">
        <ele>475.611816</ele>
        <time>2008-06-03T14:56:16Z</time>
      </trkpt>
      <trkpt lat="45.85797" lon="3.10746">
        <ele>475.232697</ele>
        <time>2008-06-03T14:56:20Z</time>
      </trkpt>
      <trkpt lat="45.85786" lon="3.10723">
        <ele>474.943939</ele>
        <time>2008-06-03T14:56:35Z</time>
      </trkpt>
      <trkpt lat="45.85778" lon="3.10685">
        <ele>476.453217</ele>
        <time>2008-06-03T14:56:56Z</time>
      </trkpt>
      <trkpt lat="45.85775" lon="3.10648">
        <ele>478.38562</ele>
        <time>2008-06-03T14:57:16Z</time>
      </trkpt>
      <trkpt lat="45.85773" lon="3.10611">
        <ele>480.294891</ele>
        <time>2008-06-03T14:57:35Z</time>
      </trkpt>
      <trkpt lat="45.85768" lon="3.10584">
        <ele>480.673065</ele>
        <time>2008-06-03T14:57:50Z</time>
      </trkpt>
      <trkpt lat="45.85765" lon="3.10562">
        <ele>481.168579</ele>
        <time>2008-06-03T14:58:04Z</time>
      </trkpt>
      <trkpt lat="45.85764" lon="3.10548">
        <ele>482.045654</ele>
        <time>2008-06-03T14:58:12Z</time>
      </trkpt>
      <trkpt lat="45.85764" lon="3.10519">
        <ele>483.242676</ele>
        <time>2008-06-03T14:58:28Z</time>
      </trkpt>
      <trkpt lat="45.85767" lon="3.10492">
        <ele>483.858917</ele>
        <time>2008-06-03T14:58:43Z</time>
      </trkpt>
      <trkpt lat="45.85773" lon="3.10462">
        <ele>485.684784</ele>
        <time>2008-06-03T14:59:01Z</time>
      </trkpt>
      <trkpt lat="45.85776" lon="3.10449">
        <ele>486.370056</ele>
        <time>2008-06-03T14:59:08Z</time>
      </trkpt>
      <trkpt lat="45.85784" lon="3.10422">
        <ele>488.504456</ele>
        <time>2008-06-03T14:59:24Z</time>
      </trkpt>
      <trkpt lat="45.85788" lon="3.10405">
        <ele>489.964539</ele>
        <time>2008-06-03T14:59:40Z</time>
      </trkpt>
      <trkpt lat="45.85785" lon="3.10401">
        <ele>488.405518</ele>
        <time>2008-06-03T14:59:59Z</time>
      </trkpt>
      <trkpt lat="45.85783" lon="3.104">
        <ele>487.88208</ele>
        <time>2008-06-03T15:00:32Z</time>
      </trkpt>
      <trkpt lat="45.85789" lon="3.10395">
        <ele>489.812866</ele>
        <time>2008-06-03T15:00:51Z</time>
      </trkpt>
      <trkpt lat="45.85798" lon="3.10376">
        <ele>491.277924</ele>
        <time>2008-06-03T15:01:07Z</time>
      </trkpt>
      <trkpt lat="45.85812" lon="3.10361">
        <ele>494.719635</ele>
        <time>2008-06-03T15:01:24Z</time>
      </trkpt>
      <trkpt lat="45.85817" lon="3.10341">
        <ele>493.957092</ele>
        <time>2008-06-03T15:01:35Z</time>
      </trkpt>
      <trkpt lat="45.85826" lon="3.10304">
        <ele>492.147552</ele>
        <time>2008-06-03T15:01:55Z</time>
      </trkpt>
      <trkpt lat="45.85838" lon="3.10284">
        <ele>493.54248</ele>
        <time>2008-06-03T15:02:12Z</time>
      </trkpt>
      <trkpt lat="45.85851" lon="3.10269">
        <ele>495.554626</ele>
        <time>2008-06-03T15:02:27Z</time>
      </trkpt>
      <trkpt lat="45.85862" lon="3.1026">
        <ele>497.906891</ele>
        <time>2008-06-03T15:02:40Z</time>
      </trkpt>
      <trkpt lat="45.85873" lon="3.10256">
        <ele>500.534943</ele>
        <time>2008-06-03T15:02:51Z</time>
      </trkpt>
      <trkpt lat="45.85889" lon="3.10241">
        <ele>503.475372</ele>
        <time>2008-06-03T15:03:09Z</time>
      </trkpt>
      <trkpt lat="45.85896" lon="3.10232">
        <ele>504.777954</ele>
        <time>2008-06-03T15:03:20Z</time>
      </trkpt>
      <trkpt lat="45.85915" lon="3.10224">
        <ele>508.194366</ele>
        <time>2008-06-03T15:03:34Z</time>
      </trkpt>
      <trkpt lat="45.85929" lon="3.10217">
        <ele>510.575958</ele>
        <time>2008-06-03T15:03:46Z</time>
      </trkpt>
      <trkpt lat="45.85937" lon="3.10204">
        <ele>511.879028</ele>
        <time>2008-06-03T15:03:59Z</time>
      </trkpt>
      <trkpt lat="45.85943" lon="3.10189">
        <ele>513.016235</ele>
        <time>2008-06-03T15:04:13Z</time>
      </trkpt>
      <trkpt lat="45.85944" lon="3.10176">
        <ele>513.032043</ele>
        <time>2008-06-03T15:04:22Z</time>
      </trkpt>
      <trkpt lat="45.85937" lon="3.10146">
        <ele>511.840729</ele>
        <time>2008-06-03T15:04:39Z</time>
      </trkpt>
      <trkpt lat="45.85927" lon="3.10122">
        <ele>509.90271</ele>
        <time>2008-06-03T15:04:58Z</time>
      </trkpt>
      <trkpt lat="45.85919" lon="3.10087">
        <ele>508.829315</ele>
        <time>2008-06-03T15:05:19Z</time>
      </trkpt>
      <trkpt lat="45.85918" lon="3.10082">
        <ele>508.68631</ele>
        <time>2008-06-03T15:05:22Z</time>
      </trkpt>
      <trkpt lat="45.8591" lon="3.10052">
        <ele>507.159515</ele>
        <time>2008-06-03T15:05:41Z</time>
      </trkpt>
      <trkpt lat="45.85905" lon="3.10017">
        <ele>505.560791</ele>
        <time>2008-06-03T15:06:02Z</time>
      </trkpt>
      <trkpt lat="45.85901" lon="3.09981">
        <ele>505.085175</ele>
        <time>2008-06-03T15:06:21Z</time>
      </trkpt>
      <trkpt lat="45.85898" lon="3.09948">
        <ele>504.757843</ele>
        <time>2008-06-03T15:06:41Z</time>
      </trkpt>
      <trkpt lat="45.85899" lon="3.09929">
        <ele>504.916595</ele>
        <time>2008-06-03T15:06:51Z</time>
      </trkpt>
      <trkpt lat="45.85893" lon="3.09884">
        <ele>503.71347</ele>
        <time>2008-06-03T15:07:09Z</time>
      </trkpt>
      <trkpt lat="45.8589" lon="3.09846">
        <ele>501.53241</ele>
        <time>2008-06-03T15:07:28Z</time>
      </trkpt>
      <trkpt lat="45.85888" lon="3.09821">
        <ele>500.122681</ele>
        <time>2008-06-03T15:07:44Z</time>
      </trkpt>
      <trkpt lat="45.85887" lon="3.09819">
        <ele>500.004761</ele>
        <time>2008-06-03T15:08:19Z</time>
      </trkpt>
      <trkpt lat="45.85887" lon="3.09821">
        <ele>500.032166</ele>
        <time>2008-06-03T15:08:45Z</time>
      </trkpt>
      <trkpt lat="45.85888" lon="3.09816">
        <ele>499.936646</ele>
        <time>2008-06-03T15:09:07Z</time>
      </trkpt>
      <trkpt lat="45.85885" lon="3.09793">
        <ele>498.672699</ele>
        <time>2008-06-03T15:09:24Z</time>
      </trkpt>
      <trkpt lat="45.85875" lon="3.09761">
        <ele>495.696045</ele>
        <time>2008-06-03T15:09:46Z</time>
      </trkpt>
      <trkpt lat="45.85876" lon="3.09726">
        <ele>495.081238</ele>
        <time>2008-06-03T15:10:06Z</time>
      </trkpt>
      <trkpt lat="45.85872" lon="3.097">
        <ele>493.702515</ele>
        <time>2008-06-03T15:10:22Z</time>
      </trkpt>
      <trkpt lat="45.85863" lon="3.09669">
        <ele>492.234314</ele>
        <time>2008-06-03T15:10:44Z</time>
      </trkpt>
      <trkpt lat="45.85864" lon="3.09654">
        <ele>492.939758</ele>
        <time>2008-06-03T15:10:53Z</time>
      </trkpt>
      <trkpt lat="45.85851" lon="3.09623">
        <ele>490.740814</ele>
        <time>2008-06-03T15:11:14Z</time>
      </trkpt>
      <trkpt lat="45.85841" lon="3.09608">
        <ele>489.457855</ele>
        <time>2008-06-03T15:11:27Z</time>
      </trkpt>
      <trkpt lat="45.85825" lon="3.09587">
        <ele>486.668213</ele>
        <time>2008-06-03T15:11:45Z</time>
      </trkpt>
      <trkpt lat="45.85808" lon="3.0956">
        <ele>483.785828</ele>
        <time>2008-06-03T15:12:06Z</time>
      </trkpt>
      <trkpt lat="45.85793" lon="3.09532">
        <ele>481.855774</ele>
        <time>2008-06-03T15:12:26Z</time>
      </trkpt>
      <trkpt lat="45.85781" lon="3.09504">
        <ele>480.624298</ele>
        <time>2008-06-03T15:12:45Z</time>
      </trkpt>
      <trkpt lat="45.85766" lon="3.09475">
        <ele>478.215851</ele>
        <time>2008-06-03T15:13:06Z</time>
      </trkpt>
      <trkpt lat="45.85751" lon="3.09445">
        <ele>475.924133</ele>
        <time>2008-06-03T15:13:27Z</time>
      </trkpt>
      <trkpt lat="45.8574" lon="3.09425">
        <ele>474.284576</ele>
        <time>2008-06-03T15:13:47Z</time>
      </trkpt>
      <trkpt lat="45.85731" lon="3.09402">
        <ele>473.404083</ele>
        <time>2008-06-03T15:14:03Z</time>
      </trkpt>
      <trkpt lat="45.85723" lon="3.09371">
        <ele>473.547302</ele>
        <time>2008-06-03T15:14:21Z</time>
      </trkpt>
      <trkpt lat="45.85716" lon="3.09338">
        <ele>473.000885</ele>
        <time>2008-06-03T15:14:40Z</time>
      </trkpt>
      <trkpt lat="45.85705" lon="3.09302">
        <ele>471.874573</ele>
        <time>2008-06-03T15:15:00Z</time>
      </trkpt>
      <trkpt lat="45.857" lon="3.09263">
        <ele>473.400574</ele>
        <time>2008-06-03T15:15:22Z</time>
      </trkpt>
      <trkpt lat="45.85691" lon="3.09227">
        <ele>474.586823</ele>
        <time>2008-06-03T15:15:42Z</time>
      </trkpt>
      <trkpt lat="45.85684" lon="3.09191">
        <ele>477.532623</ele>
        <time>2008-06-03T15:16:01Z</time>
      </trkpt>
      <trkpt lat="45.85668" lon="3.09166">
        <ele>479.343048</ele>
        <time>2008-06-03T15:16:20Z</time>
      </trkpt>
      <trkpt lat="45.85647" lon="3.09149">
        <ele>480.521729</ele>
        <time>2008-06-03T15:16:41Z</time>
      </trkpt>
      <trkpt lat="45.85641" lon="3.09144">
        <ele>480.806427</ele>
        <time>2008-06-03T15:16:59Z</time>
      </trkpt>
      <trkpt lat="45.85625" lon="3.09133">
        <ele>481.85968</ele>
        <time>2008-06-03T15:17:16Z</time>
      </trkpt>
      <trkpt lat="45.85625" lon="3.09134">
        <ele>481.742889</ele>
        <time>2008-06-03T15:17:19Z</time>
      </trkpt>
      <trkpt lat="45.85622" lon="3.09153">
        <ele>478.695984</ele>
        <time>2008-06-03T15:17:28Z</time>
      </trkpt>
      <trkpt lat="45.85615" lon="3.09174">
        <ele>475.2995</ele>
        <time>2008-06-03T15:17:38Z</time>
      </trkpt>
      <trkpt lat="45.85607" lon="3.09194">
        <ele>472.56427</ele>
        <time>2008-06-03T15:17:53Z</time>
      </trkpt>
      <trkpt lat="45.85607" lon="3.09195">
        <ele>472.438507</ele>
        <time>2008-06-03T15:17:56Z</time>
      </trkpt>
      <trkpt lat="45.85605" lon="3.09204">
        <ele>471.233093</ele>
        <time>2008-06-03T15:18:07Z</time>
      </trkpt>
      <trkpt lat="45.85604" lon="3.09204">
        <ele>471.179321</ele>
        <time>2008-06-03T15:18:22Z</time>
      </trkpt>
      <trkpt lat="45.85607" lon="3.09196">
        <ele>472.218933</ele>
        <time>2008-06-03T15:18:38Z</time>
      </trkpt>
      <trkpt lat="45.85607" lon="3.09195">
        <ele>472.374908</ele>
        <time>2008-06-03T15:18:52Z</time>
      </trkpt>
      <trkpt lat="45.85609" lon="3.09189">
        <ele>473.193787</ele>
        <time>2008-06-03T15:18:57Z</time>
      </trkpt>
      <trkpt lat="45.85618" lon="3.0916">
        <ele>477.586151</ele>
        <time>2008-06-03T15:19:17Z</time>
      </trkpt>
      <trkpt lat="45.8562" lon="3.09153">
        <ele>478.69458</ele>
        <time>2008-06-03T15:19:22Z</time>
      </trkpt>
      <trkpt lat="45.8562" lon="3.09139">
        <ele>480.886047</ele>
        <time>2008-06-03T15:19:33Z</time>
      </trkpt>
      <trkpt lat="45.85596" lon="3.09124">
        <ele>482.634247</ele>
        <time>2008-06-03T15:19:53Z</time>
      </trkpt>
      <trkpt lat="45.85572" lon="3.09113">
        <ele>485.601837</ele>
        <time>2008-06-03T15:20:11Z</time>
      </trkpt>
      <trkpt lat="45.85546" lon="3.09101">
        <ele>489.911346</ele>
        <time>2008-06-03T15:20:32Z</time>
      </trkpt>
      <trkpt lat="45.85519" lon="3.09095">
        <ele>494.204041</ele>
        <time>2008-06-03T15:20:54Z</time>
      </trkpt>
      <trkpt lat="45.85505" lon="3.09101">
        <ele>494.473724</ele>
        <time>2008-06-03T15:21:09Z</time>
      </trkpt>
      <trkpt lat="45.85489" lon="3.09106">
        <ele>494.239349</ele>
        <time>2008-06-03T15:21:25Z</time>
      </trkpt>
      <trkpt lat="45.85476" lon="3.09109">
        <ele>494.111176</ele>
        <time>2008-06-03T15:21:35Z</time>
      </trkpt>
      <trkpt lat="45.85471" lon="3.09109">
        <ele>494.138977</ele>
        <time>2008-06-03T15:21:46Z</time>
      </trkpt>
      <trkpt lat="45.85472" lon="3.09108">
        <ele>494.218567</ele>
        <time>2008-06-03T15:22:17Z</time>
      </trkpt>
      <trkpt lat="45.85468" lon="3.09106">
        <ele>494.62323</ele>
        <time>2008-06-03T15:22:51Z</time>
      </trkpt>
      <trkpt lat="45.8547" lon="3.09105">
        <ele>494.736603</ele>
        <time>2008-06-03T15:23:06Z</time>
      </trkpt>
      <trkpt lat="45.85473" lon="3.09104">
        <ele>494.866913</ele>
        <time>2008-06-03T15:23:17Z</time>
      </trkpt>
      <trkpt lat="45.85471" lon="3.09102">
        <ele>495.231964</ele>
        <time>2008-06-03T15:23:19Z</time>
      </trkpt>
      <trkpt lat="45.85467" lon="3.09096">
        <ele>496.220642</ele>
        <time>2008-06-03T15:23:30Z</time>
      </trkpt>
      <trkpt lat="45.85468" lon="3.091">
        <ele>495.705444</ele>
        <time>2008-06-03T15:23:39Z</time>
      </trkpt>
      <trkpt lat="45.85459" lon="3.09097">
        <ele>496.104279</ele>
        <time>2008-06-03T15:23:50Z</time>
      </trkpt>
      <trkpt lat="45.85448" lon="3.09088">
        <ele>496.341553</ele>
        <time>2008-06-03T15:24:05Z</time>
      </trkpt>
      <trkpt lat="45.85441" lon="3.09081">
        <ele>496.239075</ele>
        <time>2008-06-03T15:24:18Z</time>
      </trkpt>
      <trkpt lat="45.85443" lon="3.09081">
        <ele>496.570892</ele>
        <time>2008-06-03T15:24:31Z</time>
      </trkpt>
      <trkpt lat="45.85439" lon="3.09083">
        <ele>495.784119</ele>
        <time>2008-06-03T15:24:41Z</time>
      </trkpt>
      <trkpt lat="45.85437" lon="3.09079">
        <ele>495.850586</ele>
        <time>2008-06-03T15:24:48Z</time>
      </trkpt>
      <trkpt lat="45.85441" lon="3.09078">
        <ele>496.732758</ele>
        <time>2008-06-03T15:25:06Z</time>
      </trkpt>
      <trkpt lat="45.85423" lon="3.09066">
        <ele>495.300079</ele>
        <time>2008-06-03T15:25:21Z</time>
      </trkpt>
      <trkpt lat="45.85411" lon="3.0905">
        <ele>495.057434</ele>
        <time>2008-06-03T15:25:34Z</time>
      </trkpt>
      <trkpt lat="45.85409" lon="3.09048">
        <ele>494.982849</ele>
        <time>2008-06-03T15:25:36Z</time>
      </trkpt>
      <trkpt lat="45.8539" lon="3.09024">
        <ele>494.70816</ele>
        <time>2008-06-03T15:25:55Z</time>
      </trkpt>
      <trkpt lat="45.8538" lon="3.09008">
        <ele>495.012756</ele>
        <time>2008-06-03T15:26:07Z</time>
      </trkpt>
      <trkpt lat="45.85379" lon="3.08985">
        <ele>497.542572</ele>
        <time>2008-06-03T15:26:22Z</time>
      </trkpt>
      <trkpt lat="45.85379" lon="3.08955">
        <ele>499.860504</ele>
        <time>2008-06-03T15:26:39Z</time>
      </trkpt>
      <trkpt lat="45.85377" lon="3.08926">
        <ele>501.433289</ele>
        <time>2008-06-03T15:26:54Z</time>
      </trkpt>
      <trkpt lat="45.85376" lon="3.08921">
        <ele>501.644409</ele>
        <time>2008-06-03T15:26:57Z</time>
      </trkpt>
      <trkpt lat="45.85372" lon="3.08912">
        <ele>501.748932</ele>
        <time>2008-06-03T15:27:04Z</time>
      </trkpt>
      <trkpt lat="45.85352" lon="3.08894">
        <ele>500.694092</ele>
        <time>2008-06-03T15:27:20Z</time>
      </trkpt>
      <trkpt lat="45.85344" lon="3.08877">
        <ele>501.429932</ele>
        <time>2008-06-03T15:27:33Z</time>
      </trkpt>
      <trkpt lat="45.85344" lon="3.08876">
        <ele>501.498779</ele>
        <time>2008-06-03T15:27:34Z</time>
      </trkpt>
      <trkpt lat="45.85325" lon="3.0886">
        <ele>501.677887</ele>
        <time>2008-06-03T15:27:50Z</time>
      </trkpt>
      <trkpt lat="45.85313" lon="3.08851">
        <ele>501.04538</ele>
        <time>2008-06-03T15:28:01Z</time>
      </trkpt>
      <trkpt lat="45.853" lon="3.08836">
        <ele>499.871918</ele>
        <time>2008-06-03T15:28:11Z</time>
      </trkpt>
      <trkpt lat="45.85298" lon="3.08829">
        <ele>499.684601</ele>
        <time>2008-06-03T15:28:15Z</time>
      </trkpt>
      <trkpt lat="45.85293" lon="3.08804">
        <ele>499.592255</ele>
        <time>2008-06-03T15:28:27Z</time>
      </trkpt>
      <trkpt lat="45.85289" lon="3.08786">
        <ele>499.407806</ele>
        <time>2008-06-03T15:28:36Z</time>
      </trkpt>
      <trkpt lat="45.8529" lon="3.08769">
        <ele>499.859344</ele>
        <time>2008-06-03T15:28:45Z</time>
      </trkpt>
      <trkpt lat="45.8529" lon="3.0876">
        <ele>499.861023</ele>
        <time>2008-06-03T15:28:49Z</time>
      </trkpt>
      <trkpt lat="45.85289" lon="3.08743">
        <ele>500.015259</ele>
        <time>2008-06-03T15:28:58Z</time>
      </trkpt>
      <trkpt lat="45.85276" lon="3.08716">
        <ele>498.686798</ele>
        <time>2008-06-03T15:29:14Z</time>
      </trkpt>
      <trkpt lat="45.85268" lon="3.087">
        <ele>497.568817</ele>
        <time>2008-06-03T15:29:24Z</time>
      </trkpt>
      <trkpt lat="45.8525" lon="3.08671">
        <ele>494.796936</ele>
        <time>2008-06-03T15:29:41Z</time>
      </trkpt>
      <trkpt lat="45.85246" lon="3.08661">
        <ele>494.256317</ele>
        <time>2008-06-03T15:29:47Z</time>
      </trkpt>
      <trkpt lat="45.8524" lon="3.08644">
        <ele>493.405823</ele>
        <time>2008-06-03T15:29:56Z</time>
      </trkpt>
      <trkpt lat="45.85228" lon="3.0861">
        <ele>491.672852</ele>
        <time>2008-06-03T15:30:14Z</time>
      </trkpt>
      <trkpt lat="45.8521" lon="3.08581">
        <ele>489.686829</ele>
        <time>2008-06-03T15:30:32Z</time>
      </trkpt>
      <trkpt lat="45.8519" lon="3.08547">
        <ele>489.833588</ele>
        <time>2008-06-03T15:30:53Z</time>
      </trkpt>
      <trkpt lat="45.85173" lon="3.08534">
        <ele>490.878204</ele>
        <time>2008-06-03T15:31:10Z</time>
      </trkpt>
      <trkpt lat="45.85151" lon="3.0854">
        <ele>490.103577</ele>
        <time>2008-06-03T15:31:24Z</time>
      </trkpt>
      <trkpt lat="45.8513" lon="3.08544">
        <ele>489.78772</ele>
        <time>2008-06-03T15:31:39Z</time>
      </trkpt>
      <trkpt lat="45.85123" lon="3.08547">
        <ele>489.571198</ele>
        <time>2008-06-03T15:31:44Z</time>
      </trkpt>
      <trkpt lat="45.85113" lon="3.08552">
        <ele>489.324066</ele>
        <time>2008-06-03T15:31:50Z</time>
      </trkpt>
      <trkpt lat="45.85109" lon="3.08561">
        <ele>488.692627</ele>
        <time>2008-06-03T15:32:03Z</time>
      </trkpt>
      <trkpt lat="45.85098" lon="3.0857">
        <ele>488.270996</ele>
        <time>2008-06-03T15:32:25Z</time>
      </trkpt>
      <trkpt lat="45.85089" lon="3.08579">
        <ele>487.740295</ele>
        <time>2008-06-03T15:32:38Z</time>
      </trkpt>
      <trkpt lat="45.85069" lon="3.08596">
        <ele>486.927521</ele>
        <time>2008-06-03T15:32:54Z</time>
      </trkpt>
      <trkpt lat="45.85064" lon="3.08597">
        <ele>486.986633</ele>
        <time>2008-06-03T15:33:00Z</time>
      </trkpt>
      <trkpt lat="45.85046" lon="3.08615">
        <ele>486.150513</ele>
        <time>2008-06-03T15:33:22Z</time>
      </trkpt>
      <trkpt lat="45.85038" lon="3.0862">
        <ele>485.802368</ele>
        <time>2008-06-03T15:33:38Z</time>
      </trkpt>
      <trkpt lat="45.85022" lon="3.08621">
        <ele>485.768433</ele>
        <time>2008-06-03T15:33:52Z</time>
      </trkpt>
      <trkpt lat="45.85013" lon="3.08617">
        <ele>485.948975</ele>
        <time>2008-06-03T15:33:57Z</time>
      </trkpt>
      <trkpt lat="45.85" lon="3.08613">
        <ele>486.096039</ele>
        <time>2008-06-03T15:34:05Z</time>
      </trkpt>
      <trkpt lat="45.84996" lon="3.08609">
        <ele>486.302948</ele>
        <time>2008-06-03T15:34:09Z</time>
      </trkpt>
      <trkpt lat="45.84996" lon="3.08595">
        <ele>487.096008</ele>
        <time>2008-06-03T15:34:16Z</time>
      </trkpt>
      <trkpt lat="45.84988" lon="3.08586">
        <ele>487.450256</ele>
        <time>2008-06-03T15:34:34Z</time>
      </trkpt>
      <trkpt lat="45.84982" lon="3.08584">
        <ele>487.407074</ele>
        <time>2008-06-03T15:34:48Z</time>
      </trkpt>
      <trkpt lat="45.84973" lon="3.08578">
        <ele>487.561432</ele>
        <time>2008-06-03T15:35:01Z</time>
      </trkpt>
      <trkpt lat="45.84972" lon="3.08576">
        <ele>487.662048</ele>
        <time>2008-06-03T15:35:04Z</time>
      </trkpt>
      <trkpt lat="45.84969" lon="3.08564">
        <ele>488.365692</ele>
        <time>2008-06-03T15:35:12Z</time>
      </trkpt>
      <trkpt lat="45.84969" lon="3.08535">
        <ele>490.132111</ele>
        <time>2008-06-03T15:35:28Z</time>
      </trkpt>
      <trkpt lat="45.84968" lon="3.0852">
        <ele>491.056976</ele>
        <time>2008-06-03T15:35:40Z</time>
      </trkpt>
      <trkpt lat="45.84962" lon="3.08496">
        <ele>492.406677</ele>
        <time>2008-06-03T15:35:56Z</time>
      </trkpt>
      <trkpt lat="45.84961" lon="3.08482">
        <ele>493.227203</ele>
        <time>2008-06-03T15:36:09Z</time>
      </trkpt>
      <trkpt lat="45.84958" lon="3.08473">
        <ele>493.736969</ele>
        <time>2008-06-03T15:36:21Z</time>
      </trkpt>
      <trkpt lat="45.84963" lon="3.0847">
        <ele>494.050476</ele>
        <time>2008-06-03T15:36:30Z</time>
      </trkpt>
      <trkpt lat="45.84963" lon="3.0847">
        <ele>494.036255</ele>
        <time>2008-06-03T15:34:58Z</time>
      </trkpt>
    </trkseg>
  </trk>
</gpx>